<?xml version='1.0' encoding='UTF-8'?><gpx version="1.1" creator="JPX - https://github.com/jenetics/jpx" xmlns="http://www.topografix.com/GPX/1/1"><trk><trkseg><trkpt lat="53.7677375564834" lon="87.1272765183374"><ele>202.0</ele><time>2026-04-24T11:35:13Z</time></trkpt><trkpt lat="53.76768842185338" lon="87.12716592002398"><ele>202.0</ele><time>2026-04-24T11:35:16Z</time></trkpt><trkpt lat="53.76765763085576" lon="87.12706929392782"><ele>202.0</ele><time>2026-04-24T11:35:19Z</time></trkpt><trkpt lat="53.76763400698964" lon="87.12695147840003"><ele>202.0</ele><time>2026-04-24T11:35:22Z</time></trkpt><trkpt lat="53.76765712182942" lon="87.12684949115442"><ele>202.0</ele><time>2026-04-24T11:35:24Z</time></trkpt><trkpt lat="53.767612658306945" lon="87.1267524612636"><ele>202.0</ele><time>2026-04-24T11:35:51Z</time></trkpt><trkpt lat="53.76757483419371" lon="87.12662746198258"><ele>202.0</ele><time>2026-04-24T11:35:54Z</time></trkpt><trkpt lat="53.76760344736557" lon="87.12651990954136"><ele>202.0</ele><time>2026-04-24T11:35:56Z</time></trkpt><trkpt lat="53.7676607510656" lon="87.12642836957541"><ele>202.0</ele><time>2026-04-24T11:35:58Z</time></trkpt><trkpt lat="53.76771130268452" lon="87.12636016578234"><ele>202.0</ele><time>2026-04-24T11:36:00Z</time></trkpt><trkpt lat="53.76777133830206" lon="87.12626830684984"><ele>202.0</ele><time>2026-04-24T11:36:03Z</time></trkpt><trkpt lat="53.76782743335545" lon="87.12620924438454"><ele>202.0</ele><time>2026-04-24T11:36:05Z</time></trkpt><trkpt lat="53.76784193321776" lon="87.126082326422"><ele>202.0</ele><time>2026-04-24T11:36:08Z</time></trkpt><trkpt lat="53.767816144556505" lon="87.12598241474613"><ele>202.0</ele><time>2026-04-24T11:36:10Z</time></trkpt><trkpt lat="53.767760396315914" lon="87.12591024164182"><ele>201.83333333333331</ele><time>2026-04-24T11:36:12Z</time></trkpt><trkpt lat="53.767703645778795" lon="87.12580633529542"><ele>201.66666666666666</ele><time>2026-04-24T11:36:15Z</time></trkpt><trkpt lat="53.76765503568969" lon="87.12571014405673"><ele>201.5</ele><time>2026-04-24T11:36:17Z</time></trkpt><trkpt lat="53.76761060630938" lon="87.1255991181255"><ele>201.33333333333331</ele><time>2026-04-24T11:36:19Z</time></trkpt><trkpt lat="53.76754675268047" lon="87.12549139014365"><ele>201.16666666666666</ele><time>2026-04-24T11:36:21Z</time></trkpt><trkpt lat="53.76747614516334" lon="87.12541240996367"><ele>201.0</ele><time>2026-04-24T11:36:23Z</time></trkpt><trkpt lat="53.76741566370695" lon="87.12535583370203"><ele>201.0</ele><time>2026-04-24T11:36:25Z</time></trkpt><trkpt lat="53.767366513147934" lon="87.12525474770224"><ele>201.0</ele><time>2026-04-24T11:36:27Z</time></trkpt><trkpt lat="53.767328106042584" lon="87.12514818854385"><ele>201.0</ele><time>2026-04-24T11:36:29Z</time></trkpt><trkpt lat="53.76728058807872" lon="87.12503238201589"><ele>201.0</ele><time>2026-04-24T11:36:31Z</time></trkpt><trkpt lat="53.7672306712441" lon="87.12492732326233"><ele>201.0</ele><time>2026-04-24T11:36:33Z</time></trkpt><trkpt lat="53.76718005578995" lon="87.12482783093756"><ele>201.0</ele><time>2026-04-24T11:36:35Z</time></trkpt><trkpt lat="53.767132557155946" lon="87.12475457468005"><ele>201.0</ele><time>2026-04-24T11:36:37Z</time></trkpt><trkpt lat="53.767087337852" lon="87.12467903541122"><ele>201.0</ele><time>2026-04-24T11:36:39Z</time></trkpt><trkpt lat="53.76703548876298" lon="87.1246030528884"><ele>201.0</ele><time>2026-04-24T11:36:41Z</time></trkpt><trkpt lat="53.766989503806165" lon="87.12451396112705"><ele>201.0</ele><time>2026-04-24T11:36:43Z</time></trkpt><trkpt lat="53.76694048859998" lon="87.12441639595365"><ele>201.0</ele><time>2026-04-24T11:36:45Z</time></trkpt><trkpt lat="53.7669058474871" lon="87.12430047353178"><ele>201.0</ele><time>2026-04-24T11:36:47Z</time></trkpt><trkpt lat="53.76694312255938" lon="87.12420588852099"><ele>201.0</ele><time>2026-04-24T11:36:49Z</time></trkpt><trkpt lat="53.76699672410183" lon="87.12410709477433"><ele>201.33333333333334</ele><time>2026-04-24T11:36:51Z</time></trkpt><trkpt lat="53.76707279487945" lon="87.1240100967718"><ele>201.66666666666669</ele><time>2026-04-24T11:36:53Z</time></trkpt><trkpt lat="53.76712943944456" lon="87.12392008054368"><ele>202.0</ele><time>2026-04-24T11:36:55Z</time></trkpt><trkpt lat="53.76718118791013" lon="87.12382605517143"><ele>202.33333333333334</ele><time>2026-04-24T11:36:57Z</time></trkpt><trkpt lat="53.76722716104498" lon="87.12374833571862"><ele>202.66666666666669</ele><time>2026-04-24T11:36:59Z</time></trkpt><trkpt lat="53.76728495768573" lon="87.12364994418294"><ele>203.0</ele><time>2026-04-24T11:37:02Z</time></trkpt><trkpt lat="53.76734318108838" lon="87.12355143586507"><ele>203.00000000000003</ele><time>2026-04-24T11:37:05Z</time></trkpt><trkpt lat="53.767401603466084" lon="87.12345798796811"><ele>203.0</ele><time>2026-04-24T11:37:08Z</time></trkpt><trkpt lat="53.76746666168616" lon="87.12340184286349"><ele>203.0</ele><time>2026-04-24T11:37:10Z</time></trkpt><trkpt lat="53.76751877990703" lon="87.123296280924"><ele>203.0</ele><time>2026-04-24T11:37:12Z</time></trkpt><trkpt lat="53.76757131094863" lon="87.12319169243051"><ele>203.00000000000003</ele><time>2026-04-24T11:37:14Z</time></trkpt><trkpt lat="53.76762528698943" lon="87.12308991984825"><ele>203.0</ele><time>2026-04-24T11:37:16Z</time></trkpt><trkpt lat="53.767678950145815" lon="87.12299017987175"><ele>203.00000000000003</ele><time>2026-04-24T11:37:18Z</time></trkpt><trkpt lat="53.767728624002004" lon="87.12288396535159"><ele>203.0</ele><time>2026-04-24T11:37:20Z</time></trkpt><trkpt lat="53.767788657689096" lon="87.12277928068859"><ele>203.0</ele><time>2026-04-24T11:37:22Z</time></trkpt><trkpt lat="53.7678456117941" lon="87.12269440973103"><ele>203.0</ele><time>2026-04-24T11:37:24Z</time></trkpt><trkpt lat="53.767901424780774" lon="87.12260687630041"><ele>203.00000000000003</ele><time>2026-04-24T11:37:26Z</time></trkpt><trkpt lat="53.7679623459634" lon="87.12250314328668"><ele>203.0</ele><time>2026-04-24T11:37:28Z</time></trkpt><trkpt lat="53.76801641211468" lon="87.12240209340271"><ele>202.83333333333334</ele><time>2026-04-24T11:37:30Z</time></trkpt><trkpt lat="53.76805991352159" lon="87.12228480124678"><ele>202.66666666666669</ele><time>2026-04-24T11:37:32Z</time></trkpt><trkpt lat="53.768121310667844" lon="87.12218602244866"><ele>202.5</ele><time>2026-04-24T11:37:34Z</time></trkpt><trkpt lat="53.768173620644646" lon="87.12207666287169"><ele>202.33333333333331</ele><time>2026-04-24T11:37:36Z</time></trkpt><trkpt lat="53.76822872561202" lon="87.12196430944856"><ele>202.16666666666666</ele><time>2026-04-24T11:37:38Z</time></trkpt><trkpt lat="53.768288574852576" lon="87.12186259585063"><ele>202.0</ele><time>2026-04-24T11:37:40Z</time></trkpt><trkpt lat="53.76834880353993" lon="87.12175634041829"><ele>201.99999999999997</ele><time>2026-04-24T11:37:42Z</time></trkpt><trkpt lat="53.76840402397664" lon="87.1216485924423"><ele>202.0</ele><time>2026-04-24T11:37:44Z</time></trkpt><trkpt lat="53.768471399540125" lon="87.12157124970308"><ele>202.0</ele><time>2026-04-24T11:37:46Z</time></trkpt><trkpt lat="53.76853645626252" lon="87.121478836658"><ele>202.0</ele><time>2026-04-24T11:37:48Z</time></trkpt><trkpt lat="53.768592002976746" lon="87.12134600591884"><ele>201.99999999999997</ele><time>2026-04-24T11:37:50Z</time></trkpt><trkpt lat="53.76864441483082" lon="87.12123585845727"><ele>202.0</ele><time>2026-04-24T11:37:52Z</time></trkpt><trkpt lat="53.76869723684072" lon="87.12112699250584"><ele>201.99999999999997</ele><time>2026-04-24T11:37:54Z</time></trkpt><trkpt lat="53.7687488450036" lon="87.121047797497"><ele>202.0</ele><time>2026-04-24T11:37:57Z</time></trkpt><trkpt lat="53.76880501075527" lon="87.12097154143169"><ele>202.0</ele><time>2026-04-24T11:37:59Z</time></trkpt><trkpt lat="53.768863142408364" lon="87.12087368093407"><ele>202.0</ele><time>2026-04-24T11:38:01Z</time></trkpt><trkpt lat="53.768918168290256" lon="87.12073924499012"><ele>201.99999999999997</ele><time>2026-04-24T11:38:04Z</time></trkpt><trkpt lat="53.768957211948624" lon="87.12061591732872"><ele>202.0</ele><time>2026-04-24T11:38:07Z</time></trkpt><trkpt lat="53.76902532174549" lon="87.12051834550412"><ele>202.16666666666666</ele><time>2026-04-24T11:38:10Z</time></trkpt><trkpt lat="53.76908434616756" lon="87.12039235354007"><ele>202.33333333333331</ele><time>2026-04-24T11:38:13Z</time></trkpt><trkpt lat="53.7691274759657" lon="87.120307787568"><ele>202.5</ele><time>2026-04-24T11:38:15Z</time></trkpt><trkpt lat="53.76919560053316" lon="87.12024116665937"><ele>202.66666666666669</ele><time>2026-04-24T11:38:17Z</time></trkpt><trkpt lat="53.7692426318438" lon="87.12013627329559"><ele>202.83333333333334</ele><time>2026-04-24T11:38:19Z</time></trkpt><trkpt lat="53.76928020518302" lon="87.12001944279372"><ele>203.0</ele><time>2026-04-24T11:38:21Z</time></trkpt><trkpt lat="53.7693334054076" lon="87.11991566103384"><ele>203.50000000000003</ele><time>2026-04-24T11:38:23Z</time></trkpt><trkpt lat="53.769399282281086" lon="87.11982616147003"><ele>204.0</ele><time>2026-04-24T11:38:25Z</time></trkpt><trkpt lat="53.769448278019084" lon="87.1197159426355"><ele>204.5</ele><time>2026-04-24T11:38:27Z</time></trkpt><trkpt lat="53.769502008431594" lon="87.11960535230774"><ele>205.0</ele><time>2026-04-24T11:38:29Z</time></trkpt><trkpt lat="53.76956273593698" lon="87.11950754496993"><ele>205.50000000000003</ele><time>2026-04-24T11:38:31Z</time></trkpt><trkpt lat="53.76961822780185" lon="87.11941348456985"><ele>206.0</ele><time>2026-04-24T11:38:33Z</time></trkpt><trkpt lat="53.7696689150836" lon="87.1193439841265"><ele>206.00000000000003</ele><time>2026-04-24T11:38:35Z</time></trkpt><trkpt lat="53.76970637680699" lon="87.11925427923296"><ele>206.0</ele><time>2026-04-24T11:38:37Z</time></trkpt><trkpt lat="53.76976276708918" lon="87.11914277941526"><ele>206.0</ele><time>2026-04-24T11:38:40Z</time></trkpt><trkpt lat="53.76981877735159" lon="87.11904997138862"><ele>206.0</ele><time>2026-04-24T11:38:44Z</time></trkpt><trkpt lat="53.769878424288386" lon="87.11898986346496"><ele>206.00000000000003</ele><time>2026-04-24T11:38:48Z</time></trkpt><trkpt lat="53.76992497504905" lon="87.11911751268946"><ele>206.0</ele><time>2026-04-24T11:38:52Z</time></trkpt><trkpt lat="53.769998045431805" lon="87.11921267485366"><ele>206.0</ele><time>2026-04-24T11:38:54Z</time></trkpt><trkpt lat="53.77009204615463" lon="87.11934722793985"><ele>206.0</ele><time>2026-04-24T11:38:56Z</time></trkpt><trkpt lat="53.77017181656908" lon="87.11947566249674"><ele>206.0</ele><time>2026-04-24T11:38:58Z</time></trkpt><trkpt lat="53.770238439673" lon="87.1196051504809"><ele>206.0</ele><time>2026-04-24T11:39:00Z</time></trkpt><trkpt lat="53.77028559091461" lon="87.11973300096018"><ele>206.0</ele><time>2026-04-24T11:39:02Z</time></trkpt><trkpt lat="53.77035203047904" lon="87.11984166412542"><ele>205.8</ele><time>2026-04-24T11:39:04Z</time></trkpt><trkpt lat="53.77042881956931" lon="87.11996045117317"><ele>205.60000000000002</ele><time>2026-04-24T11:39:06Z</time></trkpt><trkpt lat="53.77050592668081" lon="87.12008340543508"><ele>205.4</ele><time>2026-04-24T11:39:08Z</time></trkpt><trkpt lat="53.77059050814275" lon="87.1202124446401"><ele>205.2</ele><time>2026-04-24T11:39:11Z</time></trkpt><trkpt lat="53.770640923028395" lon="87.12027771574867"><ele>205.0</ele><time>2026-04-24T11:39:14Z</time></trkpt><trkpt lat="53.77069802201595" lon="87.12040130995189"><ele>205.0</ele><time>2026-04-24T11:39:17Z</time></trkpt><trkpt lat="53.77079366034047" lon="87.12053439945424"><ele>205.0</ele><time>2026-04-24T11:39:19Z</time></trkpt><trkpt lat="53.771077954327836" lon="87.12086349393388"><ele>204.8</ele><time>2026-04-24T11:39:20Z</time></trkpt><trkpt lat="53.77120345542938" lon="87.12086641094858"><ele>204.6</ele><time>2026-04-24T11:39:22Z</time></trkpt><trkpt lat="53.77127918413186" lon="87.12097734931076"><ele>204.39999999999998</ele><time>2026-04-24T11:39:24Z</time></trkpt><trkpt lat="53.77135226469404" lon="87.12108440812534"><ele>204.2</ele><time>2026-04-24T11:39:26Z</time></trkpt><trkpt lat="53.77142799545935" lon="87.12119999239836"><ele>204.0</ele><time>2026-04-24T11:39:28Z</time></trkpt><trkpt lat="53.77149208195151" lon="87.12129626379154"><ele>204.0</ele><time>2026-04-24T11:39:30Z</time></trkpt><trkpt lat="53.771553429949684" lon="87.12138842139336"><ele>204.0</ele><time>2026-04-24T11:39:32Z</time></trkpt><trkpt lat="53.7716131182506" lon="87.12147808578052"><ele>204.0</ele><time>2026-04-24T11:39:34Z</time></trkpt><trkpt lat="53.771677722716966" lon="87.12157513528503"><ele>204.0</ele><time>2026-04-24T11:39:36Z</time></trkpt><trkpt lat="53.7717384892491" lon="87.12166641939164"><ele>204.0</ele><time>2026-04-24T11:39:38Z</time></trkpt><trkpt lat="53.77180179264676" lon="87.12176149862556"><ele>204.0</ele><time>2026-04-24T11:39:40Z</time></trkpt><trkpt lat="53.77186271214918" lon="87.12185155657026"><ele>204.16666666666666</ele><time>2026-04-24T11:39:42Z</time></trkpt><trkpt lat="53.77192429795088" lon="87.12194518398915"><ele>204.33333333333331</ele><time>2026-04-24T11:39:44Z</time></trkpt><trkpt lat="53.771994427052576" lon="87.12205158676001"><ele>204.5</ele><time>2026-04-24T11:39:46Z</time></trkpt><trkpt lat="53.772047468286765" lon="87.12213197506871"><ele>204.66666666666666</ele><time>2026-04-24T11:39:48Z</time></trkpt><trkpt lat="53.77211262597125" lon="87.12223070535859"><ele>204.83333333333331</ele><time>2026-04-24T11:39:50Z</time></trkpt><trkpt lat="53.772173012519225" lon="87.12232217542335"><ele>205.0</ele><time>2026-04-24T11:39:52Z</time></trkpt><trkpt lat="53.77223214886973" lon="87.1224117443791"><ele>204.99999999999997</ele><time>2026-04-24T11:39:54Z</time></trkpt><trkpt lat="53.772218039735165" lon="87.12262877607232"><ele>205.0</ele><time>2026-04-24T11:39:56Z</time></trkpt><trkpt lat="53.77227277066986" lon="87.12272322325543"><ele>205.0</ele><time>2026-04-24T11:39:58Z</time></trkpt><trkpt lat="53.77233022193782" lon="87.122810046533"><ele>205.0</ele><time>2026-04-24T11:40:00Z</time></trkpt><trkpt lat="53.77238315413814" lon="87.12288077904537"><ele>204.99999999999997</ele><time>2026-04-24T11:40:02Z</time></trkpt><trkpt lat="53.77243406169894" lon="87.12295378413206"><ele>205.0</ele><time>2026-04-24T11:40:04Z</time></trkpt><trkpt lat="53.7724871000873" lon="87.12303978666645"><ele>204.99999999999997</ele><time>2026-04-24T11:40:06Z</time></trkpt><trkpt lat="53.77254598350307" lon="87.12311189302582"><ele>205.0</ele><time>2026-04-24T11:40:08Z</time></trkpt><trkpt lat="53.772587566567076" lon="87.1232145493937"><ele>205.0</ele><time>2026-04-24T11:40:10Z</time></trkpt><trkpt lat="53.77265085129696" lon="87.1233056917836"><ele>205.0</ele><time>2026-04-24T11:40:12Z</time></trkpt><trkpt lat="53.7727184696996" lon="87.12341509633077"><ele>204.99999999999997</ele><time>2026-04-24T11:40:15Z</time></trkpt><trkpt lat="53.772765470803016" lon="87.12349074607376"><ele>205.0</ele><time>2026-04-24T11:40:17Z</time></trkpt><trkpt lat="53.77281211692072" lon="87.12359070492155"><ele>204.99999999999997</ele><time>2026-04-24T11:40:19Z</time></trkpt><trkpt lat="53.77287157967436" lon="87.123663055268"><ele>205.0</ele><time>2026-04-24T11:40:21Z</time></trkpt><trkpt lat="53.77292916432799" lon="87.12377339774156"><ele>205.0</ele><time>2026-04-24T11:40:24Z</time></trkpt><trkpt lat="53.77301625316259" lon="87.12386171505167"><ele>205.0</ele><time>2026-04-24T11:40:26Z</time></trkpt><trkpt lat="53.77304908754395" lon="87.12395673716414"><ele>204.99999999999997</ele><time>2026-04-24T11:40:28Z</time></trkpt><trkpt lat="53.77310106211587" lon="87.12403142276705"><ele>205.0</ele><time>2026-04-24T11:40:31Z</time></trkpt><trkpt lat="53.773168325013955" lon="87.12408281572571"><ele>204.99999999999997</ele><time>2026-04-24T11:40:35Z</time></trkpt><trkpt lat="53.773222367373535" lon="87.1241615039177"><ele>205.0</ele><time>2026-04-24T11:40:38Z</time></trkpt><trkpt lat="53.77328817522964" lon="87.12425096066256"><ele>205.0</ele><time>2026-04-24T11:40:41Z</time></trkpt><trkpt lat="53.77335414545437" lon="87.12433909797741"><ele>205.0</ele><time>2026-04-24T11:40:44Z</time></trkpt><trkpt lat="53.773420047410625" lon="87.12443576267869"><ele>204.99999999999997</ele><time>2026-04-24T11:40:47Z</time></trkpt><trkpt lat="53.773488163296406" lon="87.12453923963066"><ele>205.0</ele><time>2026-04-24T11:40:50Z</time></trkpt><trkpt lat="53.77355876514318" lon="87.12464302339562"><ele>204.85714285714286</ele><time>2026-04-24T11:40:53Z</time></trkpt><trkpt lat="53.773605724870464" lon="87.12473006836042"><ele>204.7142857142857</ele><time>2026-04-24T11:40:55Z</time></trkpt><trkpt lat="53.77366924323978" lon="87.12482196723879"><ele>204.57142857142856</ele><time>2026-04-24T11:40:59Z</time></trkpt><trkpt lat="53.773732577742415" lon="87.12486074386803"><ele>204.42857142857144</ele><time>2026-04-24T11:41:02Z</time></trkpt><trkpt lat="53.77379699144442" lon="87.12492756835142"><ele>204.28571428571428</ele><time>2026-04-24T11:41:05Z</time></trkpt><trkpt lat="53.773840683928036" lon="87.1250182841953"><ele>204.14285714285714</ele><time>2026-04-24T11:41:07Z</time></trkpt><trkpt lat="53.77388109725089" lon="87.12512279145236"><ele>204.0</ele><time>2026-04-24T11:41:09Z</time></trkpt><trkpt lat="53.77393778170972" lon="87.12522762964976"><ele>203.66666666666666</ele><time>2026-04-24T11:41:11Z</time></trkpt><trkpt lat="53.7739942548358" lon="87.12532082257167"><ele>203.33333333333331</ele><time>2026-04-24T11:41:13Z</time></trkpt><trkpt lat="53.77405354822714" lon="87.12541374949987"><ele>203.0</ele><time>2026-04-24T11:41:16Z</time></trkpt><trkpt lat="53.774114008946555" lon="87.125515018027"><ele>202.66666666666666</ele><time>2026-04-24T11:41:20Z</time></trkpt><trkpt lat="53.774150103271595" lon="87.12562888383727"><ele>202.33333333333331</ele><time>2026-04-24T11:41:23Z</time></trkpt><trkpt lat="53.77420120114201" lon="87.12573313978166"><ele>202.0</ele><time>2026-04-24T11:41:27Z</time></trkpt><trkpt lat="53.77425022273521" lon="87.12580023865704"><ele>201.85714285714286</ele><time>2026-04-24T11:41:58Z</time></trkpt><trkpt lat="53.774301897817956" lon="87.12587950955684"><ele>201.71428571428572</ele><time>2026-04-24T11:42:02Z</time></trkpt><trkpt lat="53.774354251842304" lon="87.1259630273667"><ele>201.57142857142856</ele><time>2026-04-24T11:42:05Z</time></trkpt><trkpt lat="53.77441556685747" lon="87.12599979697376"><ele>201.42857142857144</ele><time>2026-04-24T11:42:08Z</time></trkpt><trkpt lat="53.77447625673664" lon="87.12607951231274"><ele>201.2857142857143</ele><time>2026-04-24T11:42:11Z</time></trkpt><trkpt lat="53.77452164434166" lon="87.12616047107537"><ele>201.14285714285714</ele><time>2026-04-24T11:42:13Z</time></trkpt><trkpt lat="53.774584696142874" lon="87.12624889820555"><ele>201.0</ele><time>2026-04-24T11:42:15Z</time></trkpt><trkpt lat="53.774649896684544" lon="87.1263227347588"><ele>201.5</ele><time>2026-04-24T11:42:17Z</time></trkpt><trkpt lat="53.77472541834997" lon="87.12643927280808"><ele>202.0</ele><time>2026-04-24T11:42:19Z</time></trkpt><trkpt lat="53.77480640538326" lon="87.1265441000707"><ele>202.5</ele><time>2026-04-24T11:42:21Z</time></trkpt><trkpt lat="53.774863356804175" lon="87.12659061856162"><ele>203.0</ele><time>2026-04-24T11:42:23Z</time></trkpt><trkpt lat="53.77499560035105" lon="87.12634449056091"><ele>203.0</ele><time>2026-04-24T11:42:24Z</time></trkpt><trkpt lat="53.775057633193846" lon="87.12642072591439"><ele>203.0</ele><time>2026-04-24T11:42:26Z</time></trkpt><trkpt lat="53.77511001410271" lon="87.1264846674403"><ele>203.0</ele><time>2026-04-24T11:42:28Z</time></trkpt><trkpt lat="53.775173790504674" lon="87.1265622255453"><ele>203.0</ele><time>2026-04-24T11:42:30Z</time></trkpt><trkpt lat="53.775233393253494" lon="87.12663475479624"><ele>203.0</ele><time>2026-04-24T11:42:32Z</time></trkpt><trkpt lat="53.77529388531215" lon="87.1267088558037"><ele>203.0</ele><time>2026-04-24T11:42:34Z</time></trkpt><trkpt lat="53.7753506149604" lon="87.1267784395405"><ele>203.0</ele><time>2026-04-24T11:42:36Z</time></trkpt><trkpt lat="53.775414436567544" lon="87.12685672211836"><ele>202.66666666666669</ele><time>2026-04-24T11:42:39Z</time></trkpt><trkpt lat="53.77547549039888" lon="87.12693322831069"><ele>202.33333333333334</ele><time>2026-04-24T11:42:42Z</time></trkpt><trkpt lat="53.775543088867636" lon="87.12701816213136"><ele>202.0</ele><time>2026-04-24T11:42:44Z</time></trkpt><trkpt lat="53.77561609915851" lon="87.12710989557134"><ele>201.66666666666669</ele><time>2026-04-24T11:42:46Z</time></trkpt><trkpt lat="53.77567372093079" lon="87.12718229419664"><ele>201.33333333333334</ele><time>2026-04-24T11:42:48Z</time></trkpt><trkpt lat="53.77573042913944" lon="87.12725354501774"><ele>201.0</ele><time>2026-04-24T11:42:50Z</time></trkpt><trkpt lat="53.77572975261726" lon="87.12741250989507"><ele>201.0</ele><time>2026-04-24T11:42:52Z</time></trkpt><trkpt lat="53.775786422308435" lon="87.12748231670959"><ele>201.0</ele><time>2026-04-24T11:42:55Z</time></trkpt><trkpt lat="53.7758353817288" lon="87.12756943100517"><ele>201.0</ele><time>2026-04-24T11:42:58Z</time></trkpt><trkpt lat="53.77587768384406" lon="87.1276560084907"><ele>201.0</ele><time>2026-04-24T11:43:01Z</time></trkpt><trkpt lat="53.77593231365188" lon="87.12776636618206"><ele>201.0</ele><time>2026-04-24T11:43:04Z</time></trkpt><trkpt lat="53.77597706519487" lon="87.12784629056887"><ele>201.0</ele><time>2026-04-24T11:43:06Z</time></trkpt><trkpt lat="53.77605362678663" lon="87.12795660690418"><ele>200.7142857142857</ele><time>2026-04-24T11:43:09Z</time></trkpt><trkpt lat="53.7761031953236" lon="87.12807267787076"><ele>200.42857142857144</ele><time>2026-04-24T11:43:11Z</time></trkpt><trkpt lat="53.77613631404852" lon="87.12819967790188"><ele>200.14285714285714</ele><time>2026-04-24T11:43:13Z</time></trkpt><trkpt lat="53.776145904662066" lon="87.12833120847027"><ele>199.85714285714283</ele><time>2026-04-24T11:43:15Z</time></trkpt><trkpt lat="53.77614641504265" lon="87.12844877124924"><ele>199.57142857142856</ele><time>2026-04-24T11:43:17Z</time></trkpt><trkpt lat="53.77612732257806" lon="87.12855725502911"><ele>199.28571428571428</ele><time>2026-04-24T11:43:19Z</time></trkpt><trkpt lat="53.77610060478684" lon="87.12865843242288"><ele>199.0</ele><time>2026-04-24T11:43:21Z</time></trkpt><trkpt lat="53.77606741070961" lon="87.12875255521571"><ele>198.99999999999997</ele><time>2026-04-24T11:43:23Z</time></trkpt><trkpt lat="53.776048156799895" lon="87.12886862429527"><ele>199.0</ele><time>2026-04-24T11:43:26Z</time></trkpt><trkpt lat="53.776069403589396" lon="87.1289812296815"><ele>199.0</ele><time>2026-04-24T11:43:29Z</time></trkpt><trkpt lat="53.77612992517691" lon="87.12911062422835"><ele>199.0</ele><time>2026-04-24T11:44:00Z</time></trkpt><trkpt lat="53.776195807214215" lon="87.1292009495297"><ele>198.99999999999997</ele><time>2026-04-24T11:44:02Z</time></trkpt><trkpt lat="53.77622996819516" lon="87.12937965200346"><ele>199.0</ele><time>2026-04-24T11:44:04Z</time></trkpt><trkpt lat="53.776252102467716" lon="87.12953195446485"><ele>199.5</ele><time>2026-04-24T11:44:06Z</time></trkpt><trkpt lat="53.77628501691822" lon="87.12965528774336"><ele>200.0</ele><time>2026-04-24T11:44:08Z</time></trkpt><trkpt lat="53.77618754130976" lon="87.12984363923877"><ele>200.5</ele><time>2026-04-24T11:44:09Z</time></trkpt><trkpt lat="53.776248777356834" lon="87.12990011193511"><ele>201.0</ele><time>2026-04-24T11:44:12Z</time></trkpt><trkpt lat="53.77650177913857" lon="87.12962759364393"><ele>201.0</ele><time>2026-04-24T11:44:14Z</time></trkpt><trkpt lat="53.776578882493766" lon="87.12958043897828"><ele>201.0</ele><time>2026-04-24T11:44:16Z</time></trkpt><trkpt lat="53.77664811800785" lon="87.12952723176146"><ele>201.0</ele><time>2026-04-24T11:44:18Z</time></trkpt><trkpt lat="53.77670850242797" lon="87.12946706056296"><ele>201.0</ele><time>2026-04-24T11:44:20Z</time></trkpt><trkpt lat="53.77679744717968" lon="87.129414769828"><ele>201.0</ele><time>2026-04-24T11:44:23Z</time></trkpt><trkpt lat="53.77686189076346" lon="87.12941445350424"><ele>201.0</ele><time>2026-04-24T11:44:26Z</time></trkpt><trkpt lat="53.77692596041853" lon="87.12945067588025"><ele>200.5</ele><time>2026-04-24T11:44:34Z</time></trkpt><trkpt lat="53.77701132147572" lon="87.12950397119403"><ele>200.0</ele><time>2026-04-24T11:44:37Z</time></trkpt><trkpt lat="53.777077584734705" lon="87.12956909341706"><ele>199.5</ele><time>2026-04-24T11:44:39Z</time></trkpt><trkpt lat="53.77715295597571" lon="87.12963549685767"><ele>199.0</ele><time>2026-04-24T11:44:41Z</time></trkpt><trkpt lat="53.77722768674205" lon="87.12969122279544"><ele>198.5</ele><time>2026-04-24T11:44:43Z</time></trkpt><trkpt lat="53.77730078290154" lon="87.12975884994844"><ele>198.0</ele><time>2026-04-24T11:44:45Z</time></trkpt><trkpt lat="53.77737164486775" lon="87.1298315939667"><ele>198.0</ele><time>2026-04-24T11:44:47Z</time></trkpt><trkpt lat="53.777439762258695" lon="87.12990471838539"><ele>198.0</ele><time>2026-04-24T11:44:49Z</time></trkpt><trkpt lat="53.77750333919506" lon="87.12995781545656"><ele>198.0</ele><time>2026-04-24T11:44:51Z</time></trkpt><trkpt lat="53.77757923078489" lon="87.1299165684271"><ele>198.0</ele><time>2026-04-24T11:44:54Z</time></trkpt><trkpt lat="53.77763113939202" lon="87.12981678245409"><ele>198.0</ele><time>2026-04-24T11:44:57Z</time></trkpt><trkpt lat="53.777702465837734" lon="87.12983615984197"><ele>198.0</ele><time>2026-04-24T11:45:11Z</time></trkpt><trkpt lat="53.777759327689964" lon="87.12988235107485"><ele>198.0</ele><time>2026-04-24T11:45:16Z</time></trkpt><trkpt lat="53.77784818756189" lon="87.12993373301573"><ele>198.75</ele><time>2026-04-24T11:45:25Z</time></trkpt><trkpt lat="53.77801885945262" lon="87.12960542892306"><ele>199.5</ele><time>2026-04-24T11:45:47Z</time></trkpt><trkpt lat="53.778022210001225" lon="87.12949532643208"><ele>200.25</ele><time>2026-04-24T11:45:49.999Z</time></trkpt><trkpt lat="53.77801848188383" lon="87.12937953651601"><ele>201.0</ele><time>2026-04-24T11:45:52.999Z</time></trkpt><trkpt lat="53.778053560083485" lon="87.12927688904738"><ele>201.0</ele><time>2026-04-24T11:46:01.999Z</time></trkpt><trkpt lat="53.7781193215022" lon="87.12925998704111"><ele>201.0</ele><time>2026-04-24T11:46:12Z</time></trkpt><trkpt lat="53.77818130196723" lon="87.12930100253303"><ele>201.0</ele><time>2026-04-24T11:46:15Z</time></trkpt><trkpt lat="53.77826832707236" lon="87.12934724120996"><ele>201.0</ele><time>2026-04-24T11:46:19Z</time></trkpt><trkpt lat="53.7783439224447" lon="87.12939204435665"><ele>201.0</ele><time>2026-04-24T11:46:22Z</time></trkpt><trkpt lat="53.7784219482501" lon="87.12943750446328"><ele>201.0</ele><time>2026-04-24T11:46:25Z</time></trkpt><trkpt lat="53.77849949175636" lon="87.12944880837627"><ele>200.33333333333334</ele><time>2026-04-24T11:46:28Z</time></trkpt><trkpt lat="53.778577487180776" lon="87.12940265633647"><ele>199.66666666666669</ele><time>2026-04-24T11:46:31Z</time></trkpt><trkpt lat="53.7786478944489" lon="87.12936316164932"><ele>199.0</ele><time>2026-04-24T11:46:34Z</time></trkpt><trkpt lat="53.77873168882239" lon="87.1293254661084"><ele>198.33333333333334</ele><time>2026-04-24T11:46:38Z</time></trkpt><trkpt lat="53.778801148413095" lon="87.12929826025463"><ele>197.66666666666669</ele><time>2026-04-24T11:46:41Z</time></trkpt><trkpt lat="53.7788568367995" lon="87.12940289733088"><ele>197.0</ele><time>2026-04-24T11:46:45Z</time></trkpt><trkpt lat="53.77892846226797" lon="87.12941464231966"><ele>197.00000000000003</ele><time>2026-04-24T11:46:49Z</time></trkpt><trkpt lat="53.77900512017509" lon="87.12939254516148"><ele>197.0</ele><time>2026-04-24T11:46:53Z</time></trkpt><trkpt lat="53.77906896807907" lon="87.12938357930092"><ele>197.0</ele><time>2026-04-24T11:46:55Z</time></trkpt><trkpt lat="53.77915885633404" lon="87.12934729329983"><ele>197.0</ele><time>2026-04-24T11:46:58Z</time></trkpt><trkpt lat="53.77921926385495" lon="87.12928558581278"><ele>197.00000000000003</ele><time>2026-04-24T11:47:00Z</time></trkpt><trkpt lat="53.77928785320794" lon="87.12924377400473"><ele>197.0</ele><time>2026-04-24T11:47:02Z</time></trkpt><trkpt lat="53.77936153026251" lon="87.12921116566307"><ele>196.85714285714286</ele><time>2026-04-24T11:47:04Z</time></trkpt><trkpt lat="53.77942520657327" lon="87.12917153900563"><ele>196.71428571428572</ele><time>2026-04-24T11:47:06Z</time></trkpt><trkpt lat="53.77949799863514" lon="87.12913740908057"><ele>196.57142857142856</ele><time>2026-04-24T11:47:08Z</time></trkpt><trkpt lat="53.77957186600877" lon="87.12910780564872"><ele>196.42857142857144</ele><time>2026-04-24T11:47:10Z</time></trkpt><trkpt lat="53.77963935061618" lon="87.12907643546649"><ele>196.28571428571428</ele><time>2026-04-24T11:47:12Z</time></trkpt><trkpt lat="53.779712937716994" lon="87.1290479880875"><ele>196.14285714285714</ele><time>2026-04-24T11:47:14Z</time></trkpt><trkpt lat="53.77978845409318" lon="87.1290450031669"><ele>196.0</ele><time>2026-04-24T11:47:16Z</time></trkpt><trkpt lat="53.779873291635006" lon="87.12904862524941"><ele>195.99999999999997</ele><time>2026-04-24T11:47:18Z</time></trkpt><trkpt lat="53.77995127683509" lon="87.1290579624392"><ele>196.0</ele><time>2026-04-24T11:47:20Z</time></trkpt><trkpt lat="53.780021299335466" lon="87.12910306592023"><ele>196.0</ele><time>2026-04-24T11:47:22Z</time></trkpt><trkpt lat="53.78009659745957" lon="87.12915164127874"><ele>196.0</ele><time>2026-04-24T11:47:24Z</time></trkpt><trkpt lat="53.78018871245221" lon="87.12918399025541"><ele>195.99999999999997</ele><time>2026-04-24T11:47:26Z</time></trkpt><trkpt lat="53.78025734190317" lon="87.12926172160925"><ele>196.0</ele><time>2026-04-24T11:47:28Z</time></trkpt><trkpt lat="53.78031992027927" lon="87.12935538978648"><ele>195.71428571428572</ele><time>2026-04-24T11:47:30Z</time></trkpt><trkpt lat="53.780366039550145" lon="87.12942912426348"><ele>195.42857142857144</ele><time>2026-04-24T11:47:32Z</time></trkpt><trkpt lat="53.780408043018795" lon="87.12951047993364"><ele>195.14285714285714</ele><time>2026-04-24T11:47:34Z</time></trkpt><trkpt lat="53.78044815073032" lon="87.12960048945595"><ele>194.85714285714286</ele><time>2026-04-24T11:47:36.999Z</time></trkpt><trkpt lat="53.7805115801143" lon="87.12954710597454"><ele>194.57142857142858</ele><time>2026-04-24T11:47:39.999Z</time></trkpt><trkpt lat="53.780564665175184" lon="87.1294754061646"><ele>194.28571428571428</ele><time>2026-04-24T11:47:41.999Z</time></trkpt><trkpt lat="53.78061599038939" lon="87.12941129600314"><ele>194.0</ele><time>2026-04-24T11:47:43.999Z</time></trkpt><trkpt lat="53.780670883715615" lon="87.12932571166692"><ele>194.00000000000003</ele><time>2026-04-24T11:47:45.999Z</time></trkpt><trkpt lat="53.780725406871696" lon="87.12923436288777"><ele>194.0</ele><time>2026-04-24T11:47:47.999Z</time></trkpt><trkpt lat="53.78077405563222" lon="87.12914770052552"><ele>194.0</ele><time>2026-04-24T11:47:49.999Z</time></trkpt><trkpt lat="53.780823624622506" lon="87.12907129577006"><ele>194.0</ele><time>2026-04-24T11:47:51.999Z</time></trkpt><trkpt lat="53.780875876258314" lon="87.1289228035048"><ele>194.00000000000003</ele><time>2026-04-24T11:47:54.999Z</time></trkpt><trkpt lat="53.78093370321" lon="87.128814175978"><ele>194.0</ele><time>2026-04-24T11:47:56.999Z</time></trkpt><trkpt lat="53.780965370409696" lon="87.12869215068557"><ele>194.00000000000003</ele><time>2026-04-24T11:47:58.999Z</time></trkpt><trkpt lat="53.7809949833284" lon="87.12858191671755"><ele>194.0</ele><time>2026-04-24T11:48:00.999Z</time></trkpt><trkpt lat="53.781056711338756" lon="87.12852005413994"><ele>194.0</ele><time>2026-04-24T11:48:02.999Z</time></trkpt><trkpt lat="53.78113102403068" lon="87.1284175242493"><ele>194.0</ele><time>2026-04-24T11:48:05.999Z</time></trkpt><trkpt lat="53.781181943287265" lon="87.1283363123335"><ele>194.00000000000003</ele><time>2026-04-24T11:48:07.999Z</time></trkpt><trkpt lat="53.78124350475991" lon="87.12825934338116"><ele>194.0</ele><time>2026-04-24T11:48:09.999Z</time></trkpt><trkpt lat="53.781300419486215" lon="87.12817720575562"><ele>194.0</ele><time>2026-04-24T11:48:12Z</time></trkpt><trkpt lat="53.781354901585466" lon="87.12809584870425"><ele>194.0</ele><time>2026-04-24T11:48:14Z</time></trkpt><trkpt lat="53.781411466718936" lon="87.12802591288121"><ele>194.0</ele><time>2026-04-24T11:48:16Z</time></trkpt><trkpt lat="53.78140863617794" lon="87.12791925126166"><ele>194.0</ele><time>2026-04-24T11:48:21Z</time></trkpt><trkpt lat="53.78144366782085" lon="87.12780768645429"><ele>194.0</ele><time>2026-04-24T11:48:25Z</time></trkpt><trkpt lat="53.781395901621806" lon="87.12772426588998"><ele>194.0</ele><time>2026-04-24T11:48:29Z</time></trkpt><trkpt lat="53.7813784868552" lon="87.12761664229967"><ele>194.0</ele><time>2026-04-24T11:48:40Z</time></trkpt><trkpt lat="53.78130215435255" lon="87.12756436370384"><ele>194.0</ele><time>2026-04-24T11:48:48Z</time></trkpt><trkpt lat="53.78131980257621" lon="87.12741089860741"><ele>194.0</ele><time>2026-04-24T11:48:51Z</time></trkpt><trkpt lat="53.78135149742271" lon="87.12731714118871"><ele>194.0</ele><time>2026-04-24T11:48:54Z</time></trkpt><trkpt lat="53.78129724443641" lon="87.1272140417133"><ele>194.0</ele><time>2026-04-24T11:48:56Z</time></trkpt><trkpt lat="53.78125151860519" lon="87.12712652677654"><ele>194.0</ele><time>2026-04-24T11:48:58Z</time></trkpt><trkpt lat="53.781212892989664" lon="87.12704060313361"><ele>194.0</ele><time>2026-04-24T11:49:01Z</time></trkpt><trkpt lat="53.781183719520044" lon="87.1269461088782"><ele>194.0</ele><time>2026-04-24T11:49:04Z</time></trkpt><trkpt lat="53.78116309020991" lon="87.1268292613647"><ele>194.0</ele><time>2026-04-24T11:49:07.999Z</time></trkpt><trkpt lat="53.78110221558567" lon="87.12673632021719"><ele>194.0</ele><time>2026-04-24T11:49:15.999Z</time></trkpt><trkpt lat="53.7810345581053" lon="87.12679712741097"><ele>194.0</ele><time>2026-04-24T11:49:19.999Z</time></trkpt><trkpt lat="53.781138892128325" lon="87.12673628644197"><ele>194.0</ele><time>2026-04-24T11:49:24.999Z</time></trkpt><trkpt lat="53.78135167720434" lon="87.12638977613894"><ele>194.2</ele><time>2026-04-24T11:49:25.999Z</time></trkpt><trkpt lat="53.78142851826555" lon="87.1263449211942"><ele>194.39999999999998</ele><time>2026-04-24T11:49:27.999Z</time></trkpt><trkpt lat="53.781531849232685" lon="87.12630038511577"><ele>194.6</ele><time>2026-04-24T11:49:29.999Z</time></trkpt><trkpt lat="53.78166345773335" lon="87.12631144246296"><ele>194.8</ele><time>2026-04-24T11:49:32.999Z</time></trkpt><trkpt lat="53.78172712544025" lon="87.12630288719215"><ele>195.0</ele><time>2026-04-24T11:49:34.999Z</time></trkpt><trkpt lat="53.78178875848207" lon="87.1262099113485"><ele>195.0</ele><time>2026-04-24T11:49:38.999Z</time></trkpt><trkpt lat="53.78183455164178" lon="87.12611596881048"><ele>195.0</ele><time>2026-04-24T11:49:41.999Z</time></trkpt><trkpt lat="53.78193632064789" lon="87.12612208258658"><ele>195.0</ele><time>2026-04-24T11:49:44.999Z</time></trkpt><trkpt lat="53.78200589033226" lon="87.12613222668257"><ele>195.0</ele><time>2026-04-24T11:49:46.999Z</time></trkpt><trkpt lat="53.78208615499053" lon="87.12614928825218"><ele>195.0</ele><time>2026-04-24T11:49:49.999Z</time></trkpt><trkpt lat="53.782156274430704" lon="87.1261639172686"><ele>195.0</ele><time>2026-04-24T11:49:51.999Z</time></trkpt><trkpt lat="53.782219410267906" lon="87.12617363597116"><ele>195.0</ele><time>2026-04-24T11:49:53.999Z</time></trkpt><trkpt lat="53.78228608154464" lon="87.12619157303446"><ele>195.0</ele><time>2026-04-24T11:49:55.999Z</time></trkpt><trkpt lat="53.78238075064582" lon="87.12620996340239"><ele>195.0</ele><time>2026-04-24T11:49:58.999Z</time></trkpt><trkpt lat="53.782443275533794" lon="87.12622297530281"><ele>195.0</ele><time>2026-04-24T11:50:00.999Z</time></trkpt><trkpt lat="53.78253516746522" lon="87.12622121912223"><ele>195.0</ele><time>2026-04-24T11:50:03.999Z</time></trkpt><trkpt lat="53.78260193023358" lon="87.12622999942704"><ele>195.0</ele><time>2026-04-24T11:50:05.999Z</time></trkpt><trkpt lat="53.782691384532015" lon="87.12624842716006"><ele>195.33333333333334</ele><time>2026-04-24T11:50:08.999Z</time></trkpt><trkpt lat="53.78277615881803" lon="87.12623367335125"><ele>195.66666666666669</ele><time>2026-04-24T11:50:11.999Z</time></trkpt><trkpt lat="53.78285475622407" lon="87.12622613113646"><ele>196.0</ele><time>2026-04-24T11:50:14.999Z</time></trkpt><trkpt lat="53.78293264333881" lon="87.12622019658082"><ele>196.33333333333334</ele><time>2026-04-24T11:50:17.999Z</time></trkpt><trkpt lat="53.78301007166181" lon="87.12619884363764"><ele>196.66666666666669</ele><time>2026-04-24T11:50:20.999Z</time></trkpt><trkpt lat="53.783077342860494" lon="87.1261907675298"><ele>197.0</ele><time>2026-04-24T11:50:24Z</time></trkpt><trkpt lat="53.78315982789466" lon="87.12616796478855"><ele>197.00000000000003</ele><time>2026-04-24T11:50:28Z</time></trkpt><trkpt lat="53.78324545426263" lon="87.12616055678632"><ele>197.0</ele><time>2026-04-24T11:50:31Z</time></trkpt><trkpt lat="53.783319017344915" lon="87.12608542850741"><ele>197.0</ele><time>2026-04-24T11:50:34Z</time></trkpt><trkpt lat="53.78340056265467" lon="87.12608039045136"><ele>197.0</ele><time>2026-04-24T11:50:37Z</time></trkpt><trkpt lat="53.7834618976585" lon="87.12612730901311"><ele>197.00000000000003</ele><time>2026-04-24T11:50:40Z</time></trkpt><trkpt lat="53.78353245349769" lon="87.12614914959491"><ele>197.0</ele><time>2026-04-24T11:50:44.999Z</time></trkpt><trkpt lat="53.78359911748831" lon="87.12609349099505"><ele>197.16666666666669</ele><time>2026-04-24T11:50:48.999Z</time></trkpt><trkpt lat="53.7835360230601" lon="87.12615283197638"><ele>197.33333333333334</ele><time>2026-04-24T11:50:54.999Z</time></trkpt><trkpt lat="53.78360239831112" lon="87.12620044716552"><ele>197.5</ele><time>2026-04-24T11:51:26.999Z</time></trkpt><trkpt lat="53.78360420133116" lon="87.12635769045579"><ele>197.66666666666669</ele><time>2026-04-24T11:51:28.999Z</time></trkpt><trkpt lat="53.78361008978527" lon="87.1265676127078"><ele>197.83333333333334</ele><time>2026-04-24T11:51:30.999Z</time></trkpt><trkpt lat="53.783612989162854" lon="87.12668046691444"><ele>198.0</ele><time>2026-04-24T11:51:31.999Z</time></trkpt><trkpt lat="53.78361371986758" lon="87.12679391914925"><ele>197.66666666666666</ele><time>2026-04-24T11:51:32.999Z</time></trkpt><trkpt lat="53.78361739117424" lon="87.1269211405709"><ele>197.33333333333331</ele><time>2026-04-24T11:51:33.999Z</time></trkpt><trkpt lat="53.78361486643358" lon="87.12706657805164"><ele>197.0</ele><time>2026-04-24T11:51:34.999Z</time></trkpt><trkpt lat="53.783611299767706" lon="87.12719704442794"><ele>196.66666666666666</ele><time>2026-04-24T11:51:35.999Z</time></trkpt><trkpt lat="53.78360462732589" lon="87.12732021687354"><ele>196.33333333333331</ele><time>2026-04-24T11:51:36.999Z</time></trkpt><trkpt lat="53.783601684119674" lon="87.12744216706962"><ele>196.0</ele><time>2026-04-24T11:51:37.999Z</time></trkpt><trkpt lat="53.78359867336561" lon="87.12755998671823"><ele>195.99999999999997</ele><time>2026-04-24T11:51:38.999Z</time></trkpt><trkpt lat="53.78359688001065" lon="87.1276772516067"><ele>196.0</ele><time>2026-04-24T11:51:39.999Z</time></trkpt><trkpt lat="53.783531301909704" lon="87.12782970446814"><ele>196.0</ele><time>2026-04-24T11:51:41.999Z</time></trkpt><trkpt lat="53.783475040748606" lon="87.12788159181652"><ele>196.0</ele><time>2026-04-24T11:51:42.999Z</time></trkpt><trkpt lat="53.78341117990734" lon="87.12792337678358"><ele>195.99999999999997</ele><time>2026-04-24T11:51:43.999Z</time></trkpt><trkpt lat="53.78330233913048" lon="87.12799693965057"><ele>196.0</ele><time>2026-04-24T11:51:45.999Z</time></trkpt><trkpt lat="53.78320319985165" lon="87.12790823092006"><ele>195.99999999999997</ele><time>2026-04-24T11:51:47.999Z</time></trkpt><trkpt lat="53.783124811275" lon="87.12790491381136"><ele>196.0</ele><time>2026-04-24T11:51:49.999Z</time></trkpt><trkpt lat="53.78302921696437" lon="87.1278986129373"><ele>196.0</ele><time>2026-04-24T11:51:52.999Z</time></trkpt><trkpt lat="53.78295062712258" lon="87.12790561622886"><ele>196.0</ele><time>2026-04-24T11:51:54.999Z</time></trkpt><trkpt lat="53.782877659005976" lon="87.12790587758771"><ele>195.99999999999997</ele><time>2026-04-24T11:51:56.999Z</time></trkpt><trkpt lat="53.7828127739822" lon="87.12788500908252"><ele>196.0</ele><time>2026-04-24T11:51:58.999Z</time></trkpt><trkpt lat="53.78275029550341" lon="87.12798251504998"><ele>196.0</ele><time>2026-04-24T11:52:01.999Z</time></trkpt><trkpt lat="53.78279794751622" lon="87.1280571971466"><ele>196.0</ele><time>2026-04-24T11:52:03.999Z</time></trkpt><trkpt lat="53.7828423444701" lon="87.12796283309476"><ele>196.0</ele><time>2026-04-24T11:52:05.999Z</time></trkpt><trkpt lat="53.78279719083507" lon="87.12787880668463"><ele>196.0</ele><time>2026-04-24T11:52:07.999Z</time></trkpt><trkpt lat="53.7827319526929" lon="87.12790728656695"><ele>196.0</ele><time>2026-04-24T11:52:09.999Z</time></trkpt><trkpt lat="53.782635654471385" lon="87.12791334014068"><ele>196.0</ele><time>2026-04-24T11:52:12.999Z</time></trkpt><trkpt lat="53.782570068298526" lon="87.1279155783286"><ele>196.0</ele><time>2026-04-24T11:52:14.999Z</time></trkpt><trkpt lat="53.78250460328098" lon="87.12789913136285"><ele>196.0</ele><time>2026-04-24T11:52:16.999Z</time></trkpt><trkpt lat="53.782436354980256" lon="87.1279130559062"><ele>196.0</ele><time>2026-04-24T11:52:18.999Z</time></trkpt><trkpt lat="53.78237049369292" lon="87.12792642845152"><ele>196.0</ele><time>2026-04-24T11:52:20.999Z</time></trkpt><trkpt lat="53.78230005633229" lon="87.12792288669064"><ele>196.0</ele><time>2026-04-24T11:52:22.999Z</time></trkpt><trkpt lat="53.78223158774732" lon="87.12791008857582"><ele>196.0</ele><time>2026-04-24T11:52:24.999Z</time></trkpt><trkpt lat="53.782166667558286" lon="87.12791633195226"><ele>196.0</ele><time>2026-04-24T11:52:26.999Z</time></trkpt><trkpt lat="53.78210016002282" lon="87.12792633017811"><ele>196.0</ele><time>2026-04-24T11:52:28.999Z</time></trkpt><trkpt lat="53.78200810583991" lon="87.12794009963879"><ele>195.99999999999997</ele><time>2026-04-24T11:52:31.999Z</time></trkpt><trkpt lat="53.781930349886" lon="87.12797002046173"><ele>196.0</ele><time>2026-04-24T11:52:34.999Z</time></trkpt><trkpt lat="53.78185711017481" lon="87.12793409100172"><ele>196.0</ele><time>2026-04-24T11:52:37.999Z</time></trkpt><trkpt lat="53.781786208118454" lon="87.1279053746294"><ele>196.0</ele><time>2026-04-24T11:52:50.999Z</time></trkpt><trkpt lat="53.781709816454" lon="87.12793216341322"><ele>195.99999999999997</ele><time>2026-04-24T11:52:53.999Z</time></trkpt><trkpt lat="53.78163501345317" lon="87.12790274346716"><ele>196.0</ele><time>2026-04-24T11:52:56.999Z</time></trkpt><trkpt lat="53.78155653509768" lon="87.12787531245391"><ele>195.71428571428572</ele><time>2026-04-24T11:53:00.999Z</time></trkpt><trkpt lat="53.781535102475935" lon="87.12775406151549"><ele>195.42857142857144</ele><time>2026-04-24T11:53:03.999Z</time></trkpt><trkpt lat="53.78158638775327" lon="87.12768529006671"><ele>195.14285714285714</ele><time>2026-04-24T11:53:06.999Z</time></trkpt><trkpt lat="53.7815188723608" lon="87.1276353542845"><ele>194.85714285714286</ele><time>2026-04-24T11:53:15.999Z</time></trkpt><trkpt lat="53.78144848117072" lon="87.12757274446014"><ele>194.57142857142858</ele><time>2026-04-24T11:53:18.999Z</time></trkpt><trkpt lat="53.78136537194278" lon="87.12753076731263"><ele>194.28571428571428</ele><time>2026-04-24T11:53:21.999Z</time></trkpt><trkpt lat="53.781315049668294" lon="87.12746243996845"><ele>194.0</ele><time>2026-04-24T11:53:27.999Z</time></trkpt><trkpt lat="53.78124815848558" lon="87.12747568563096"><ele>194.0</ele><time>2026-04-24T11:55:30Z</time></trkpt><trkpt lat="53.78129048474386" lon="87.12755891039679"><ele>194.0</ele><time>2026-04-24T11:55:49Z</time></trkpt><trkpt lat="53.781232047670045" lon="87.12751004481198"><ele>194.0</ele><time>2026-04-24T11:58:51.241Z</time></trkpt><trkpt lat="53.78064816570431" lon="87.12661768916276"><ele>194.0</ele><time>2026-04-24T11:59:16.408Z</time></trkpt><trkpt lat="53.78113550791285" lon="87.12739863573182"><ele>194.0</ele><time>2026-04-24T11:59:23.178Z</time></trkpt><trkpt lat="53.78123158459503" lon="87.12754043528868"><ele>194.0</ele><time>2026-04-24T11:59:29.195Z</time></trkpt><trkpt lat="53.781103851500454" lon="87.12733435164023"><ele>194.0</ele><time>2026-04-24T11:59:59.855Z</time></trkpt><trkpt lat="53.781037032562374" lon="87.12722055710117"><ele>194.0</ele><time>2026-04-24T12:00:00.714Z</time></trkpt><trkpt lat="53.78115543226616" lon="87.12745798405521"><ele>194.0</ele><time>2026-04-24T12:00:38.609Z</time></trkpt><trkpt lat="53.78105044628792" lon="87.12729598949866"><ele>194.0</ele><time>2026-04-24T12:01:16.864Z</time></trkpt><trkpt lat="53.780946571663655" lon="87.12713138211723"><ele>194.0</ele><time>2026-04-24T12:01:23.241Z</time></trkpt><trkpt lat="53.78088306791758" lon="87.1270217946086"><ele>194.0</ele><time>2026-04-24T12:01:29.617Z</time></trkpt><trkpt lat="53.78074705737558" lon="87.1268134777839"><ele>194.0</ele><time>2026-04-24T12:01:48.735Z</time></trkpt><trkpt lat="53.780618014002734" lon="87.12666306040063"><ele>194.0</ele><time>2026-04-24T12:01:55.11Z</time></trkpt><trkpt lat="53.78056101402134" lon="87.1265354544117"><ele>194.0</ele><time>2026-04-24T12:02:01.49Z</time></trkpt><trkpt lat="53.780494217883515" lon="87.12642398308397"><ele>194.0</ele><time>2026-04-24T12:02:07.856Z</time></trkpt><trkpt lat="53.78068435762842" lon="87.12664320921918"><ele>194.5</ele><time>2026-04-24T12:02:40.224Z</time></trkpt><trkpt lat="53.7804961520175" lon="87.12635356991296"><ele>195.0</ele><time>2026-04-24T12:02:50.62Z</time></trkpt><trkpt lat="53.78029020489237" lon="87.12604348974172"><ele>195.0</ele><time>2026-04-24T12:03:41.889Z</time></trkpt><trkpt lat="53.78022394168858" lon="87.12596000070094"><ele>195.0</ele><time>2026-04-24T12:03:48.267Z</time></trkpt><trkpt lat="53.780128446373695" lon="87.12576124885987"><ele>195.0</ele><time>2026-04-24T12:04:59.725Z</time></trkpt><trkpt lat="53.78005302166606" lon="87.12567894081027"><ele>195.0</ele><time>2026-04-24T12:05:24.549Z</time></trkpt><trkpt lat="53.77995388603743" lon="87.12557333006214"><ele>195.0</ele><time>2026-04-24T12:05:30.955Z</time></trkpt><trkpt lat="53.77970517133774" lon="87.12533031059687"><ele>195.0</ele><time>2026-04-24T12:07:51.735Z</time></trkpt><trkpt lat="53.77982312981987" lon="87.12549188018262"><ele>195.0</ele><time>2026-04-24T12:09:28.776Z</time></trkpt><trkpt lat="53.779947503120255" lon="87.12558494842644"><ele>195.0</ele><time>2026-04-24T12:12:01.901Z</time></trkpt><trkpt lat="53.78002291961162" lon="87.12566784362052"><ele>195.0</ele><time>2026-04-24T12:12:08.309Z</time></trkpt><trkpt lat="53.780125072603866" lon="87.12576089593516"><ele>195.0</ele><time>2026-04-24T12:18:16.208Z</time></trkpt><trkpt lat="53.78020497050006" lon="87.12578411211486"><ele>195.0</ele><time>2026-04-24T12:18:22.233Z</time></trkpt><trkpt lat="53.7804879753044" lon="87.12596918961128"><ele>195.0</ele><time>2026-04-24T12:20:58.519Z</time></trkpt><trkpt lat="53.78054430707883" lon="87.12605994838886"><ele>195.0</ele><time>2026-04-24T12:21:04.899Z</time></trkpt><trkpt lat="53.78079437023433" lon="87.12642082824256"><ele>195.0</ele><time>2026-04-24T12:21:17.636Z</time></trkpt><trkpt lat="53.78091524587611" lon="87.12660010738747"><ele>194.8</ele><time>2026-04-24T12:21:23.218Z</time></trkpt><trkpt lat="53.78100518772958" lon="87.12674980400617"><ele>194.6</ele><time>2026-04-24T12:21:55.524Z</time></trkpt><trkpt lat="53.78101985494496" lon="87.12693784576861"><ele>194.39999999999998</ele><time>2026-04-24T12:22:08.284Z</time></trkpt><trkpt lat="53.78107671811105" lon="87.12706922395824"><ele>194.2</ele><time>2026-04-24T12:22:29.627Z</time></trkpt><trkpt lat="53.78113200889028" lon="87.12717294300163"><ele>194.0</ele><time>2026-04-24T12:22:36.029Z</time></trkpt><trkpt lat="53.78120130270499" lon="87.12731848243583"><ele>194.0</ele><time>2026-04-24T12:22:42.42Z</time></trkpt><trkpt lat="53.78126847515039" lon="87.12749282647759"><ele>194.0</ele><time>2026-04-24T12:22:59.638Z</time></trkpt></trkseg><trkseg><trkpt lat="53.78350158729499" lon="87.12614112702123"><ele>197.00000000000003</ele><time>2026-04-24T15:05:54Z</time></trkpt><trkpt lat="53.78343350700651" lon="87.12608795389608"><ele>197.0</ele><time>2026-04-24T15:06:31Z</time></trkpt><trkpt lat="53.78335870122084" lon="87.12610961407732"><ele>197.0</ele><time>2026-04-24T15:06:34Z</time></trkpt><trkpt lat="53.78328378705952" lon="87.12613149105886"><ele>197.0</ele><time>2026-04-24T15:06:37Z</time></trkpt><trkpt lat="53.78320842375245" lon="87.12620729231477"><ele>197.00000000000003</ele><time>2026-04-24T15:06:40Z</time></trkpt><trkpt lat="53.783149646602105" lon="87.12630571021516"><ele>197.0</ele><time>2026-04-24T15:06:42Z</time></trkpt><trkpt lat="53.78306992856998" lon="87.12637036323706"><ele>197.0</ele><time>2026-04-24T15:06:44Z</time></trkpt><trkpt lat="53.78299576659824" lon="87.12641518279035"><ele>197.0</ele><time>2026-04-24T15:06:46Z</time></trkpt><trkpt lat="53.7829273186508" lon="87.12646793370048"><ele>197.0</ele><time>2026-04-24T15:06:48Z</time></trkpt><trkpt lat="53.78286561384852" lon="87.12651795927628"><ele>197.0</ele><time>2026-04-24T15:06:50Z</time></trkpt><trkpt lat="53.78279175833814" lon="87.12652966099313"><ele>197.0</ele><time>2026-04-24T15:06:52Z</time></trkpt><trkpt lat="53.78272405606656" lon="87.12651618170872"><ele>197.0</ele><time>2026-04-24T15:06:54Z</time></trkpt><trkpt lat="53.78264644505989" lon="87.12651155736067"><ele>197.0</ele><time>2026-04-24T15:06:56Z</time></trkpt><trkpt lat="53.78258057324318" lon="87.12660916220197"><ele>196.83333333333334</ele><time>2026-04-24T15:06:58Z</time></trkpt><trkpt lat="53.78251994226862" lon="87.12667147711781"><ele>196.66666666666669</ele><time>2026-04-24T15:07:00Z</time></trkpt><trkpt lat="53.782443570546995" lon="87.12672367371647"><ele>196.5</ele><time>2026-04-24T15:07:02Z</time></trkpt><trkpt lat="53.78238128927827" lon="87.12679087619031"><ele>196.33333333333331</ele><time>2026-04-24T15:07:04Z</time></trkpt><trkpt lat="53.78234056176769" lon="87.12688964172395"><ele>196.16666666666666</ele><time>2026-04-24T15:07:06Z</time></trkpt><trkpt lat="53.782293720498195" lon="87.12696384796314"><ele>196.0</ele><time>2026-04-24T15:07:08Z</time></trkpt><trkpt lat="53.78222603637986" lon="87.12706120136012"><ele>195.99999999999997</ele><time>2026-04-24T15:07:10Z</time></trkpt><trkpt lat="53.78216007872654" lon="87.12716782826608"><ele>196.0</ele><time>2026-04-24T15:07:12Z</time></trkpt><trkpt lat="53.782111245713764" lon="87.12726526927588"><ele>196.0</ele><time>2026-04-24T15:07:14Z</time></trkpt><trkpt lat="53.78206857531669" lon="87.12736732430369"><ele>196.0</ele><time>2026-04-24T15:07:16Z</time></trkpt><trkpt lat="53.782040174236826" lon="87.12748171975113"><ele>195.99999999999997</ele><time>2026-04-24T15:07:18Z</time></trkpt><trkpt lat="53.78205018008285" lon="87.12760470715524"><ele>196.0</ele><time>2026-04-24T15:07:20Z</time></trkpt><trkpt lat="53.78198246389308" lon="87.12765094947714"><ele>195.99999999999997</ele><time>2026-04-24T15:07:22Z</time></trkpt><trkpt lat="53.78189931697826" lon="87.12765380814233"><ele>196.0</ele><time>2026-04-24T15:07:24Z</time></trkpt><trkpt lat="53.7818173290929" lon="87.12766622434236"><ele>196.0</ele><time>2026-04-24T15:07:26Z</time></trkpt><trkpt lat="53.781755741509826" lon="87.12770776378918"><ele>196.0</ele><time>2026-04-24T15:07:28Z</time></trkpt><trkpt lat="53.781770634984916" lon="87.12786115498261"><ele>195.99999999999997</ele><time>2026-04-24T15:07:30Z</time></trkpt><trkpt lat="53.78174775344518" lon="87.12800074385056"><ele>196.0</ele><time>2026-04-24T15:07:36Z</time></trkpt><trkpt lat="53.781679387715705" lon="87.12806273990843"><ele>195.66666666666666</ele><time>2026-04-24T15:07:39Z</time></trkpt><trkpt lat="53.78160129082519" lon="87.12804479330055"><ele>195.33333333333331</ele><time>2026-04-24T15:07:42Z</time></trkpt><trkpt lat="53.781529676479515" lon="87.12803068815295"><ele>195.0</ele><time>2026-04-24T15:07:46Z</time></trkpt><trkpt lat="53.78144668285488" lon="87.12808561706166"><ele>194.66666666666669</ele><time>2026-04-24T15:07:49Z</time></trkpt><trkpt lat="53.78136063391517" lon="87.1281943040579"><ele>194.33333333333334</ele><time>2026-04-24T15:07:51Z</time></trkpt><trkpt lat="53.781285908976365" lon="87.12826882525606"><ele>194.0</ele><time>2026-04-24T15:07:53Z</time></trkpt><trkpt lat="53.78120795275968" lon="87.1283413380181"><ele>194.0</ele><time>2026-04-24T15:07:55Z</time></trkpt><trkpt lat="53.781123140979176" lon="87.12843496964042"><ele>194.0</ele><time>2026-04-24T15:07:57Z</time></trkpt><trkpt lat="53.78104422431661" lon="87.12851229538236"><ele>194.0</ele><time>2026-04-24T15:07:59Z</time></trkpt><trkpt lat="53.78096679206863" lon="87.12859972270597"><ele>194.0</ele><time>2026-04-24T15:08:01Z</time></trkpt><trkpt lat="53.78089222523352" lon="87.1286801796996"><ele>194.0</ele><time>2026-04-24T15:08:03Z</time></trkpt><trkpt lat="53.78083858778455" lon="87.12879660088836"><ele>194.00000000000003</ele><time>2026-04-24T15:08:05Z</time></trkpt><trkpt lat="53.780819168144646" lon="87.12892066595947"><ele>194.0</ele><time>2026-04-24T15:08:07Z</time></trkpt><trkpt lat="53.7808080943304" lon="87.12907292921751"><ele>194.0</ele><time>2026-04-24T15:08:09Z</time></trkpt><trkpt lat="53.780743247298616" lon="87.12918971034267"><ele>194.0</ele><time>2026-04-24T15:08:11Z</time></trkpt><trkpt lat="53.780690804496295" lon="87.12927395472985"><ele>194.00000000000003</ele><time>2026-04-24T15:08:15Z</time></trkpt><trkpt lat="53.78064060910851" lon="87.12937236646476"><ele>194.0</ele><time>2026-04-24T15:08:19Z</time></trkpt><trkpt lat="53.780573941435385" lon="87.12946512226303"><ele>194.0</ele><time>2026-04-24T15:08:22Z</time></trkpt><trkpt lat="53.780513476581326" lon="87.1295352151335"><ele>194.0</ele><time>2026-04-24T15:08:25Z</time></trkpt><trkpt lat="53.780451520812846" lon="87.12961102934192"><ele>194.0</ele><time>2026-04-24T15:08:29Z</time></trkpt><trkpt lat="53.78040298229081" lon="87.12954027556005"><ele>194.0</ele><time>2026-04-24T15:08:35Z</time></trkpt><trkpt lat="53.78036566115393" lon="87.12945092637405"><ele>194.0</ele><time>2026-04-24T15:08:40Z</time></trkpt><trkpt lat="53.78032019493259" lon="87.12937614150967"><ele>194.0</ele><time>2026-04-24T15:08:44Z</time></trkpt><trkpt lat="53.78026014171821" lon="87.12930660562714"><ele>194.0</ele><time>2026-04-24T15:08:47Z</time></trkpt><trkpt lat="53.78019167292121" lon="87.12920306580317"><ele>194.28571428571428</ele><time>2026-04-24T15:08:50Z</time></trkpt><trkpt lat="53.780126399766196" lon="87.12914558766984"><ele>194.57142857142858</ele><time>2026-04-24T15:08:53Z</time></trkpt><trkpt lat="53.78005587459299" lon="87.1291266139301"><ele>194.85714285714286</ele><time>2026-04-24T15:08:55Z</time></trkpt><trkpt lat="53.77997621595875" lon="87.12909033696963"><ele>195.14285714285714</ele><time>2026-04-24T15:08:57Z</time></trkpt><trkpt lat="53.77991233204932" lon="87.1290663785674"><ele>195.42857142857144</ele><time>2026-04-24T15:08:59Z</time></trkpt><trkpt lat="53.77984840637558" lon="87.12907240615696"><ele>195.71428571428572</ele><time>2026-04-24T15:09:02Z</time></trkpt><trkpt lat="53.77992916868399" lon="87.12906931920045"><ele>196.0</ele><time>2026-04-24T15:10:51Z</time></trkpt><trkpt lat="53.77984188923237" lon="87.12905723271862"><ele>196.0</ele><time>2026-04-24T15:11:02Z</time></trkpt><trkpt lat="53.77977315405021" lon="87.12906270969646"><ele>196.0</ele><time>2026-04-24T15:11:11Z</time></trkpt><trkpt lat="53.77970013262882" lon="87.12906315205923"><ele>196.0</ele><time>2026-04-24T15:11:15Z</time></trkpt><trkpt lat="53.779630474606186" lon="87.12908055172348"><ele>196.0</ele><time>2026-04-24T15:11:18Z</time></trkpt><trkpt lat="53.77956109508325" lon="87.12911527457177"><ele>196.0</ele><time>2026-04-24T15:11:21Z</time></trkpt><trkpt lat="53.77949447491058" lon="87.12914863603534"><ele>196.0</ele><time>2026-04-24T15:11:24Z</time></trkpt><trkpt lat="53.779423608245175" lon="87.12918702907439"><ele>196.0</ele><time>2026-04-24T15:11:28Z</time></trkpt><trkpt lat="53.779369167928515" lon="87.1292532958605"><ele>196.16666666666666</ele><time>2026-04-24T15:11:31Z</time></trkpt><trkpt lat="53.77926945990987" lon="87.12925559623187"><ele>196.33333333333331</ele><time>2026-04-24T15:11:34Z</time></trkpt><trkpt lat="53.779206920036835" lon="87.1293004028369"><ele>196.5</ele><time>2026-04-24T15:11:36Z</time></trkpt><trkpt lat="53.779145083529315" lon="87.12933815823834"><ele>196.66666666666669</ele><time>2026-04-24T15:11:39Z</time></trkpt><trkpt lat="53.77907338694554" lon="87.1293962250286"><ele>196.83333333333334</ele><time>2026-04-24T15:11:43Z</time></trkpt><trkpt lat="53.779008894960675" lon="87.12939557501117"><ele>197.0</ele><time>2026-04-24T15:11:47Z</time></trkpt><trkpt lat="53.778925442903606" lon="87.12941408824916"><ele>197.00000000000003</ele><time>2026-04-24T15:11:52Z</time></trkpt><trkpt lat="53.77884881988996" lon="87.12946084496099"><ele>197.0</ele><time>2026-04-24T15:11:54Z</time></trkpt><trkpt lat="53.77875995897292" lon="87.12943594428174"><ele>197.0</ele><time>2026-04-24T15:11:56Z</time></trkpt><trkpt lat="53.77871362803189" lon="87.12934481246121"><ele>197.0</ele><time>2026-04-24T15:11:58Z</time></trkpt><trkpt lat="53.77863913468378" lon="87.12938091387988"><ele>197.00000000000003</ele><time>2026-04-24T15:12:01Z</time></trkpt><trkpt lat="53.77857429576673" lon="87.12941141841532"><ele>197.0</ele><time>2026-04-24T15:12:04Z</time></trkpt><trkpt lat="53.77851404376243" lon="87.12944295025038"><ele>197.66666666666669</ele><time>2026-04-24T15:12:07Z</time></trkpt><trkpt lat="53.778443675879046" lon="87.12946683712204"><ele>198.33333333333334</ele><time>2026-04-24T15:12:11Z</time></trkpt><trkpt lat="53.77837598090427" lon="87.1294233189163"><ele>199.0</ele><time>2026-04-24T15:12:16Z</time></trkpt><trkpt lat="53.77829749592109" lon="87.12937479645986"><ele>199.66666666666669</ele><time>2026-04-24T15:12:19Z</time></trkpt><trkpt lat="53.77821539714473" lon="87.12932739721941"><ele>200.33333333333334</ele><time>2026-04-24T15:12:22Z</time></trkpt><trkpt lat="53.778146669065315" lon="87.1292928962491"><ele>201.0</ele><time>2026-04-24T15:12:25Z</time></trkpt><trkpt lat="53.77808231844905" lon="87.12925366359526"><ele>201.0</ele><time>2026-04-24T15:12:28Z</time></trkpt><trkpt lat="53.778026210477194" lon="87.12930254615515"><ele>201.0</ele><time>2026-04-24T15:12:42Z</time></trkpt><trkpt lat="53.77799161661161" lon="87.12940030040708"><ele>201.0</ele><time>2026-04-24T15:12:50Z</time></trkpt><trkpt lat="53.77792642978856" lon="87.12943663088109"><ele>201.0</ele><time>2026-04-24T15:13:00Z</time></trkpt><trkpt lat="53.777851414771135" lon="87.12943755709951"><ele>201.0</ele><time>2026-04-24T15:13:07.077Z</time></trkpt><trkpt lat="53.77770476553638" lon="87.1294272455773"><ele>201.0</ele><time>2026-04-24T15:13:12.035Z</time></trkpt><trkpt lat="53.777806062402775" lon="87.12973135354096"><ele>201.0</ele><time>2026-04-24T15:13:13Z</time></trkpt><trkpt lat="53.77774477314051" lon="87.12978189167326"><ele>201.0</ele><time>2026-04-24T15:13:14Z</time></trkpt><trkpt lat="53.77766535341964" lon="87.12978388479823"><ele>201.0</ele><time>2026-04-24T15:13:22Z</time></trkpt><trkpt lat="53.77759548152969" lon="87.12981259536456"><ele>201.0</ele><time>2026-04-24T15:13:43Z</time></trkpt><trkpt lat="53.777540024228685" lon="87.12992991191655"><ele>201.0</ele><time>2026-04-24T15:14:12Z</time></trkpt><trkpt lat="53.777466121539085" lon="87.12992919597815"><ele>201.0</ele><time>2026-04-24T15:14:14Z</time></trkpt><trkpt lat="53.77738593599292" lon="87.12986629428883"><ele>200.57142857142856</ele><time>2026-04-24T15:14:17Z</time></trkpt><trkpt lat="53.77731954161082" lon="87.12980878523291"><ele>200.14285714285717</ele><time>2026-04-24T15:14:20Z</time></trkpt><trkpt lat="53.777259613992385" lon="87.1297532506848"><ele>199.71428571428572</ele><time>2026-04-24T15:14:23Z</time></trkpt><trkpt lat="53.777198133482024" lon="87.12970722023528"><ele>199.28571428571428</ele><time>2026-04-24T15:14:26Z</time></trkpt><trkpt lat="53.777136279965674" lon="87.12962977138706"><ele>198.85714285714283</ele><time>2026-04-24T15:14:30Z</time></trkpt><trkpt lat="53.77707332961714" lon="87.129563272266"><ele>198.42857142857144</ele><time>2026-04-24T15:14:34Z</time></trkpt><trkpt lat="53.77700367786017" lon="87.12949869329478"><ele>198.0</ele><time>2026-04-24T15:14:38Z</time></trkpt><trkpt lat="53.77693174524823" lon="87.12942897037405"><ele>198.0</ele><time>2026-04-24T15:14:42Z</time></trkpt><trkpt lat="53.776872261465606" lon="87.1293920753577"><ele>198.0</ele><time>2026-04-24T15:14:44Z</time></trkpt><trkpt lat="53.77678934548422" lon="87.1294049808798"><ele>198.0</ele><time>2026-04-24T15:14:48Z</time></trkpt><trkpt lat="53.776703188754574" lon="87.1294649921031"><ele>198.0</ele><time>2026-04-24T15:14:51Z</time></trkpt><trkpt lat="53.77662407546638" lon="87.12951729784781"><ele>198.0</ele><time>2026-04-24T15:14:53Z</time></trkpt><trkpt lat="53.77653890126304" lon="87.1295802995267"><ele>198.0</ele><time>2026-04-24T15:14:56Z</time></trkpt><trkpt lat="53.77646487431869" lon="87.12961698132972"><ele>198.5</ele><time>2026-04-24T15:14:58Z</time></trkpt><trkpt lat="53.77639929181674" lon="87.12966615040673"><ele>199.0</ele><time>2026-04-24T15:15:00Z</time></trkpt><trkpt lat="53.77633998235184" lon="87.12973474909066"><ele>199.5</ele><time>2026-04-24T15:15:02Z</time></trkpt><trkpt lat="53.77627611212872" lon="87.12988808552959"><ele>200.0</ele><time>2026-04-24T15:15:05Z</time></trkpt><trkpt lat="53.77619256733463" lon="87.1299854410087"><ele>200.5</ele><time>2026-04-24T15:15:07Z</time></trkpt><trkpt lat="53.77614047966541" lon="87.13006169580284"><ele>201.0</ele><time>2026-04-24T15:15:08Z</time></trkpt><trkpt lat="53.77607235614539" lon="87.13013841475582"><ele>201.60000000000002</ele><time>2026-04-24T15:15:09Z</time></trkpt><trkpt lat="53.7759577112326" lon="87.13013557318305"><ele>202.2</ele><time>2026-04-24T15:15:10Z</time></trkpt><trkpt lat="53.775878674459605" lon="87.13029233331919"><ele>202.8</ele><time>2026-04-24T15:15:12Z</time></trkpt><trkpt lat="53.77580760906013" lon="87.13043240759552"><ele>203.39999999999998</ele><time>2026-04-24T15:15:14Z</time></trkpt><trkpt lat="53.77574363000021" lon="87.13055851470669"><ele>204.0</ele><time>2026-04-24T15:15:16Z</time></trkpt><trkpt lat="53.77568788521726" lon="87.13066839103722"><ele>203.83333333333334</ele><time>2026-04-24T15:15:18Z</time></trkpt><trkpt lat="53.775617839098466" lon="87.13080645679311"><ele>203.66666666666669</ele><time>2026-04-24T15:15:21Z</time></trkpt><trkpt lat="53.77557312746537" lon="87.13089458668058"><ele>203.5</ele><time>2026-04-24T15:15:23Z</time></trkpt><trkpt lat="53.7755384701208" lon="87.13100165948013"><ele>203.33333333333334</ele><time>2026-04-24T15:15:25Z</time></trkpt><trkpt lat="53.77548637380877" lon="87.13106384092376"><ele>203.16666666666669</ele><time>2026-04-24T15:15:28Z</time></trkpt><trkpt lat="53.77542271869926" lon="87.13116665164233"><ele>203.0</ele><time>2026-04-24T15:15:31Z</time></trkpt><trkpt lat="53.77534215198772" lon="87.13121825282838"><ele>203.0</ele><time>2026-04-24T15:15:34Z</time></trkpt><trkpt lat="53.775264758347966" lon="87.13128475769349"><ele>203.0</ele><time>2026-04-24T15:15:37Z</time></trkpt><trkpt lat="53.77519016249711" lon="87.13131535063177"><ele>203.0</ele><time>2026-04-24T15:15:40Z</time></trkpt><trkpt lat="53.775111060111385" lon="87.13133804663134"><ele>203.0</ele><time>2026-04-24T15:15:43Z</time></trkpt><trkpt lat="53.77504611167603" lon="87.13136068833505"><ele>203.0</ele><time>2026-04-24T15:15:46Z</time></trkpt><trkpt lat="53.77498441991378" lon="87.13139950564967"><ele>203.0</ele><time>2026-04-24T15:15:53Z</time></trkpt><trkpt lat="53.77492165850953" lon="87.13135190688837"><ele>203.0</ele><time>2026-04-24T15:16:05Z</time></trkpt><trkpt lat="53.77486993967561" lon="87.13128597078928"><ele>202.16666666666669</ele><time>2026-04-24T15:16:08Z</time></trkpt><trkpt lat="53.77480690251875" lon="87.13122659284508"><ele>201.33333333333334</ele><time>2026-04-24T15:16:10Z</time></trkpt><trkpt lat="53.7747546922869" lon="87.13109745854463"><ele>200.5</ele><time>2026-04-24T15:16:13Z</time></trkpt><trkpt lat="53.77468802432098" lon="87.13101236076334"><ele>199.66666666666669</ele><time>2026-04-24T15:16:16Z</time></trkpt><trkpt lat="53.77465849774639" lon="87.13110883569743"><ele>198.83333333333334</ele><time>2026-04-24T15:16:20Z</time></trkpt><trkpt lat="53.77461733738264" lon="87.13120157700305"><ele>198.0</ele><time>2026-04-24T15:16:26Z</time></trkpt><trkpt lat="53.77455001983405" lon="87.13127215580126"><ele>198.0</ele><time>2026-04-24T15:16:29Z</time></trkpt><trkpt lat="53.77449521447967" lon="87.13140591527358"><ele>198.0</ele><time>2026-04-24T15:16:33Z</time></trkpt><trkpt lat="53.7744403334065" lon="87.13152654692544"><ele>198.0</ele><time>2026-04-24T15:16:35Z</time></trkpt><trkpt lat="53.774353499401336" lon="87.13166583027885"><ele>198.0</ele><time>2026-04-24T15:16:37Z</time></trkpt><trkpt lat="53.77437378829342" lon="87.13194385790999"><ele>198.33333333333334</ele><time>2026-04-24T15:16:39Z</time></trkpt><trkpt lat="53.774312555578895" lon="87.13204286746496"><ele>198.66666666666669</ele><time>2026-04-24T15:16:41Z</time></trkpt><trkpt lat="53.77426642887637" lon="87.13211745157305"><ele>199.0</ele><time>2026-04-24T15:16:43Z</time></trkpt><trkpt lat="53.77420459558041" lon="87.13221743219972"><ele>199.33333333333334</ele><time>2026-04-24T15:16:46Z</time></trkpt><trkpt lat="53.774133218405304" lon="87.13233284480155"><ele>199.66666666666669</ele><time>2026-04-24T15:16:49Z</time></trkpt><trkpt lat="53.77407404358324" lon="87.13242852684627"><ele>200.0</ele><time>2026-04-24T15:16:51Z</time></trkpt><trkpt lat="53.774006427419266" lon="87.13253787427882"><ele>200.0</ele><time>2026-04-24T15:16:53Z</time></trkpt><trkpt lat="53.773939781885055" lon="87.13264565773117"><ele>200.0</ele><time>2026-04-24T15:16:55Z</time></trkpt><trkpt lat="53.77386405733451" lon="87.13276812443522"><ele>200.0</ele><time>2026-04-24T15:16:57Z</time></trkpt><trkpt lat="53.773767704420976" lon="87.13292395259971"><ele>200.0</ele><time>2026-04-24T15:16:59Z</time></trkpt><trkpt lat="53.773714377347446" lon="87.13301019647031"><ele>200.0</ele><time>2026-04-24T15:17:00Z</time></trkpt><trkpt lat="53.773663470652735" lon="87.13309252533888"><ele>200.0</ele><time>2026-04-24T15:17:01Z</time></trkpt><trkpt lat="53.77360756519731" lon="87.1331796928383"><ele>200.0</ele><time>2026-04-24T15:17:02Z</time></trkpt><trkpt lat="53.77334525285968" lon="87.13298332969082"><ele>200.0</ele><time>2026-04-24T15:17:04Z</time></trkpt><trkpt lat="53.773233319526675" lon="87.13303813468349"><ele>200.4</ele><time>2026-04-24T15:17:06Z</time></trkpt><trkpt lat="53.77316298616536" lon="87.13305525635975"><ele>200.8</ele><time>2026-04-24T15:17:07Z</time></trkpt><trkpt lat="53.7731002600823" lon="87.13307333069655"><ele>201.2</ele><time>2026-04-24T15:17:08Z</time></trkpt><trkpt lat="53.77298680804232" lon="87.13303523924847"><ele>201.6</ele><time>2026-04-24T15:17:10Z</time></trkpt><trkpt lat="53.77291814962223" lon="87.13289911770342"><ele>202.0</ele><time>2026-04-24T15:17:12Z</time></trkpt><trkpt lat="53.7728466239663" lon="87.1327770672971"><ele>202.0</ele><time>2026-04-24T15:17:14Z</time></trkpt><trkpt lat="53.772761243810955" lon="87.13262997573169"><ele>202.0</ele><time>2026-04-24T15:17:16Z</time></trkpt><trkpt lat="53.77271664735632" lon="87.13255284924833"><ele>202.0</ele><time>2026-04-24T15:17:17Z</time></trkpt><trkpt lat="53.77263280981574" lon="87.13240858288641"><ele>202.0</ele><time>2026-04-24T15:17:19Z</time></trkpt><trkpt lat="53.77255874677706" lon="87.13228060216863"><ele>202.0</ele><time>2026-04-24T15:17:21Z</time></trkpt><trkpt lat="53.77249976100638" lon="87.13217856476228"><ele>201.49999999999997</ele><time>2026-04-24T15:17:23Z</time></trkpt><trkpt lat="53.7724875870993" lon="87.13206293257365"><ele>201.0</ele><time>2026-04-24T15:17:25Z</time></trkpt><trkpt lat="53.77243349376959" lon="87.13198285980684"><ele>200.5</ele><time>2026-04-24T15:17:28Z</time></trkpt><trkpt lat="53.77237741603942" lon="87.13187569922324"><ele>200.0</ele><time>2026-04-24T15:17:32Z</time></trkpt><trkpt lat="53.77229959250636" lon="87.13180973178589"><ele>199.49999999999997</ele><time>2026-04-24T15:17:34Z</time></trkpt><trkpt lat="53.77224765153157" lon="87.13174497536143"><ele>199.0</ele><time>2026-04-24T15:17:36Z</time></trkpt><trkpt lat="53.77218966368549" lon="87.13164572802579"><ele>199.39999999999998</ele><time>2026-04-24T15:17:38Z</time></trkpt><trkpt lat="53.77211810856572" lon="87.13152326018742"><ele>199.8</ele><time>2026-04-24T15:17:40Z</time></trkpt><trkpt lat="53.77203900706912" lon="87.13138744951787"><ele>200.2</ele><time>2026-04-24T15:17:42Z</time></trkpt><trkpt lat="53.771969994881474" lon="87.13126919133119"><ele>200.60000000000002</ele><time>2026-04-24T15:17:44Z</time></trkpt><trkpt lat="53.771917436867795" lon="87.13117973659016"><ele>201.0</ele><time>2026-04-24T15:17:47Z</time></trkpt><trkpt lat="53.77184455229015" lon="87.13105466886422"><ele>201.0</ele><time>2026-04-24T15:17:48Z</time></trkpt><trkpt lat="53.77179080337435" lon="87.13096241185933"><ele>201.0</ele><time>2026-04-24T15:17:50Z</time></trkpt><trkpt lat="53.771744642477444" lon="87.13088317039714"><ele>201.0</ele><time>2026-04-24T15:17:52Z</time></trkpt><trkpt lat="53.771688104266026" lon="87.1307860727616"><ele>201.0</ele><time>2026-04-24T15:17:55Z</time></trkpt><trkpt lat="53.771634703828255" lon="87.13069433206502"><ele>201.0</ele><time>2026-04-24T15:17:58Z</time></trkpt><trkpt lat="53.77155800528322" lon="87.13056256574535"><ele>201.0</ele><time>2026-04-24T15:18:00Z</time></trkpt><trkpt lat="53.77150519972072" lon="87.1304718467805"><ele>201.4</ele><time>2026-04-24T15:18:01Z</time></trkpt><trkpt lat="53.77141765627618" lon="87.13034030210346"><ele>201.8</ele><time>2026-04-24T15:18:03Z</time></trkpt><trkpt lat="53.771332542641915" lon="87.13033879202558"><ele>202.20000000000002</ele><time>2026-04-24T15:18:06Z</time></trkpt><trkpt lat="53.77141825680345" lon="87.13020965163305"><ele>202.60000000000002</ele><time>2026-04-24T15:18:09Z</time></trkpt><trkpt lat="53.771302573861696" lon="87.13028629483588"><ele>203.0</ele><time>2026-04-24T15:18:10Z</time></trkpt><trkpt lat="53.771270966662314" lon="87.13038697944532"><ele>203.0</ele><time>2026-04-24T15:18:18Z</time></trkpt><trkpt lat="53.77123927159057" lon="87.13048665041484"><ele>203.0</ele><time>2026-04-24T15:18:27Z</time></trkpt><trkpt lat="53.771191986502664" lon="87.13057612712447"><ele>203.0</ele><time>2026-04-24T15:18:38Z</time></trkpt><trkpt lat="53.771149068007446" lon="87.1306576801863"><ele>203.0</ele><time>2026-04-24T15:18:44Z</time></trkpt><trkpt lat="53.77108667079561" lon="87.13069229647823"><ele>203.0</ele><time>2026-04-24T15:19:05Z</time></trkpt><trkpt lat="53.77103559672041" lon="87.1307850063414"><ele>203.0</ele><time>2026-04-24T15:19:08Z</time></trkpt><trkpt lat="53.77099057194768" lon="87.13089946763247"><ele>203.0</ele><time>2026-04-24T15:19:12Z</time></trkpt><trkpt lat="53.77094400205129" lon="87.13100158896864"><ele>202.57142857142858</ele><time>2026-04-24T15:19:17Z</time></trkpt><trkpt lat="53.770900065336534" lon="87.13109574045626"><ele>202.14285714285714</ele><time>2026-04-24T15:19:22Z</time></trkpt><trkpt lat="53.770916715804546" lon="87.13120645317863"><ele>201.71428571428572</ele><time>2026-04-24T15:19:26Z</time></trkpt><trkpt lat="53.77088429417036" lon="87.13130926258646"><ele>201.28571428571428</ele><time>2026-04-24T15:19:32Z</time></trkpt><trkpt lat="53.770823004889905" lon="87.13137882844413"><ele>200.85714285714286</ele><time>2026-04-24T15:19:35Z</time></trkpt><trkpt lat="53.770795594285126" lon="87.13148627985841"><ele>200.42857142857144</ele><time>2026-04-24T15:19:38Z</time></trkpt><trkpt lat="53.77084523917694" lon="87.13156746023627"><ele>200.0</ele><time>2026-04-24T15:19:41Z</time></trkpt><trkpt lat="53.7708894633568" lon="87.13165539166141"><ele>200.00000000000003</ele><time>2026-04-24T15:19:53.999Z</time></trkpt><trkpt lat="53.77089434868983" lon="87.13176763845989"><ele>200.0</ele><time>2026-04-24T15:19:58.999Z</time></trkpt><trkpt lat="53.77083148469719" lon="87.1318484255784"><ele>200.0</ele><time>2026-04-24T15:20:01Z</time></trkpt><trkpt lat="53.77077099299501" lon="87.13192167506651"><ele>200.0</ele><time>2026-04-24T15:20:03Z</time></trkpt><trkpt lat="53.77072222607681" lon="87.13200565689318"><ele>200.0</ele><time>2026-04-24T15:20:05Z</time></trkpt><trkpt lat="53.770680010153065" lon="87.132086193559"><ele>200.00000000000003</ele><time>2026-04-24T15:20:07Z</time></trkpt><trkpt lat="53.77062121627933" lon="87.1322043116494"><ele>200.0</ele><time>2026-04-24T15:20:10Z</time></trkpt><trkpt lat="53.77054384138449" lon="87.13231000553807"><ele>200.00000000000003</ele><time>2026-04-24T15:20:13Z</time></trkpt><trkpt lat="53.77048160286682" lon="87.13237866159022"><ele>200.0</ele><time>2026-04-24T15:20:15Z</time></trkpt><trkpt lat="53.77042988266721" lon="87.13244157801346"><ele>200.0</ele><time>2026-04-24T15:20:17Z</time></trkpt><trkpt lat="53.77035519260963" lon="87.13253265894733"><ele>200.0</ele><time>2026-04-24T15:20:20Z</time></trkpt><trkpt lat="53.770284907884836" lon="87.1326082572082"><ele>200.00000000000003</ele><time>2026-04-24T15:20:22Z</time></trkpt><trkpt lat="53.770215313439294" lon="87.13266064743746"><ele>200.0</ele><time>2026-04-24T15:20:24Z</time></trkpt><trkpt lat="53.77013065406621" lon="87.13266185541688"><ele>199.4</ele><time>2026-04-24T15:20:26Z</time></trkpt><trkpt lat="53.77005475848233" lon="87.13264541206834"><ele>198.8</ele><time>2026-04-24T15:20:28Z</time></trkpt><trkpt lat="53.76997223104799" lon="87.13266589291905"><ele>198.2</ele><time>2026-04-24T15:20:31Z</time></trkpt><trkpt lat="53.76986684896927" lon="87.1326862492876"><ele>197.6</ele><time>2026-04-24T15:20:33Z</time></trkpt><trkpt lat="53.76978783437525" lon="87.13279628840883"><ele>197.0</ele><time>2026-04-24T15:20:36Z</time></trkpt><trkpt lat="53.769710551798255" lon="87.1327286776957"><ele>197.0</ele><time>2026-04-24T15:20:38Z</time></trkpt><trkpt lat="53.76967154397441" lon="87.13263037353968"><ele>197.0</ele><time>2026-04-24T15:20:46Z</time></trkpt><trkpt lat="53.76961381439944" lon="87.13254803902709"><ele>197.0</ele><time>2026-04-24T15:20:49Z</time></trkpt><trkpt lat="53.76955127463934" lon="87.13248947136081"><ele>197.0</ele><time>2026-04-24T15:21:10Z</time></trkpt><trkpt lat="53.76948918630772" lon="87.13254238640224"><ele>197.0</ele><time>2026-04-24T15:21:13Z</time></trkpt><trkpt lat="53.76942571796825" lon="87.13264860170159"><ele>197.0</ele><time>2026-04-24T15:21:16Z</time></trkpt><trkpt lat="53.7693822968601" lon="87.13273505982816"><ele>197.0</ele><time>2026-04-24T15:21:19Z</time></trkpt><trkpt lat="53.76932150721681" lon="87.13283447917225"><ele>197.00000000000003</ele><time>2026-04-24T15:21:22Z</time></trkpt><trkpt lat="53.76928562800064" lon="87.13294355462487"><ele>197.0</ele><time>2026-04-24T15:21:25Z</time></trkpt><trkpt lat="53.76928486285196" lon="87.13312017787759"><ele>197.0</ele><time>2026-04-24T15:21:27Z</time></trkpt><trkpt lat="53.769287784102815" lon="87.13326769409544"><ele>197.0</ele><time>2026-04-24T15:21:29Z</time></trkpt><trkpt lat="53.76921261086578" lon="87.13334159075244"><ele>197.00000000000003</ele><time>2026-04-24T15:21:32Z</time></trkpt><trkpt lat="53.76914995772548" lon="87.13341839320502"><ele>197.0</ele><time>2026-04-24T15:21:35Z</time></trkpt><trkpt lat="53.76907216036035" lon="87.13349969750669"><ele>197.00000000000003</ele><time>2026-04-24T15:21:38Z</time></trkpt><trkpt lat="53.76901135710408" lon="87.13362600717097"><ele>197.0</ele><time>2026-04-24T15:21:40Z</time></trkpt><trkpt lat="53.76894740723826" lon="87.13372796895163"><ele>197.0</ele><time>2026-04-24T15:21:41.999Z</time></trkpt><trkpt lat="53.768908257930015" lon="87.13381442264085"><ele>197.0</ele><time>2026-04-24T15:21:43.999Z</time></trkpt><trkpt lat="53.76885560761037" lon="87.13388338910028"><ele>197.00000000000003</ele><time>2026-04-24T15:21:45.999Z</time></trkpt><trkpt lat="53.768793442542375" lon="87.13399851631927"><ele>197.0</ele><time>2026-04-24T15:21:48.999Z</time></trkpt><trkpt lat="53.768731740587604" lon="87.1340715726812"><ele>196.50000000000003</ele><time>2026-04-24T15:21:50.999Z</time></trkpt><trkpt lat="53.76868241330504" lon="87.13414140920943"><ele>196.0</ele><time>2026-04-24T15:21:52.999Z</time></trkpt><trkpt lat="53.768611751690855" lon="87.1342373959143"><ele>195.5</ele><time>2026-04-24T15:21:55.999Z</time></trkpt><trkpt lat="53.768549907168804" lon="87.13434507566419"><ele>195.0</ele><time>2026-04-24T15:21:58.999Z</time></trkpt><trkpt lat="53.76849914860789" lon="87.13441607560135"><ele>194.50000000000003</ele><time>2026-04-24T15:22:00.999Z</time></trkpt><trkpt lat="53.76844119352454" lon="87.13450221717251"><ele>194.0</ele><time>2026-04-24T15:22:03.999Z</time></trkpt><trkpt lat="53.76838262590726" lon="87.13460989453608"><ele>193.83333333333334</ele><time>2026-04-24T15:22:07Z</time></trkpt><trkpt lat="53.768333525709494" lon="87.13468027358637"><ele>193.66666666666669</ele><time>2026-04-24T15:22:09Z</time></trkpt><trkpt lat="53.76827098065025" lon="87.13477749074794"><ele>193.5</ele><time>2026-04-24T15:22:12Z</time></trkpt><trkpt lat="53.76821186790092" lon="87.13488945304037"><ele>193.33333333333331</ele><time>2026-04-24T15:22:15Z</time></trkpt><trkpt lat="53.76816124743412" lon="87.13496320701529"><ele>193.16666666666666</ele><time>2026-04-24T15:22:17Z</time></trkpt><trkpt lat="53.76811725947571" lon="87.13504987779943"><ele>193.0</ele><time>2026-04-24T15:22:19Z</time></trkpt><trkpt lat="53.768051970667294" lon="87.13515129980443"><ele>193.4</ele><time>2026-04-24T15:22:22Z</time></trkpt><trkpt lat="53.76799099168904" lon="87.13525574559496"><ele>193.8</ele><time>2026-04-24T15:22:25Z</time></trkpt><trkpt lat="53.767930221535266" lon="87.13535406219725"><ele>194.2</ele><time>2026-04-24T15:22:27Z</time></trkpt><trkpt lat="53.76784193031461" lon="87.1354847622768"><ele>194.6</ele><time>2026-04-24T15:22:29Z</time></trkpt><trkpt lat="53.76771385056155" lon="87.13550908081895"><ele>195.0</ele><time>2026-04-24T15:22:31Z</time></trkpt><trkpt lat="53.76762243112206" lon="87.1356573247894"><ele>194.8</ele><time>2026-04-24T15:22:33Z</time></trkpt><trkpt lat="53.7675727414705" lon="87.1357379002925"><ele>194.6</ele><time>2026-04-24T15:22:34Z</time></trkpt><trkpt lat="53.76748504117432" lon="87.13588011619466"><ele>194.39999999999998</ele><time>2026-04-24T15:22:36Z</time></trkpt><trkpt lat="53.7674046336079" lon="87.13600787242814"><ele>194.2</ele><time>2026-04-24T15:22:38Z</time></trkpt><trkpt lat="53.767333984763354" lon="87.13612055636511"><ele>194.0</ele><time>2026-04-24T15:22:40Z</time></trkpt><trkpt lat="53.767264662088415" lon="87.13623112480553"><ele>194.0</ele><time>2026-04-24T15:22:42Z</time></trkpt><trkpt lat="53.76720541055668" lon="87.13632562979107"><ele>194.0</ele><time>2026-04-24T15:22:44Z</time></trkpt><trkpt lat="53.76715166756758" lon="87.13641445054824"><ele>194.0</ele><time>2026-04-24T15:22:46Z</time></trkpt><trkpt lat="53.76709852577428" lon="87.13650289143075"><ele>194.0</ele><time>2026-04-24T15:22:48Z</time></trkpt><trkpt lat="53.767050539994784" lon="87.13658355361343"><ele>194.0</ele><time>2026-04-24T15:22:50Z</time></trkpt><trkpt lat="53.767303810859566" lon="87.13660655372684"><ele>193.75</ele><time>2026-04-24T15:22:57Z</time></trkpt><trkpt lat="53.76737586415508" lon="87.13674412273579"><ele>193.5</ele><time>2026-04-24T15:22:59Z</time></trkpt><trkpt lat="53.76722808267114" lon="87.1370273787977"><ele>193.25</ele><time>2026-04-24T15:23:00Z</time></trkpt><trkpt lat="53.767292239110304" lon="87.13713259027105"><ele>193.0</ele><time>2026-04-24T15:23:03Z</time></trkpt><trkpt lat="53.76725108336983" lon="87.13725597002095"><ele>192.99999999999997</ele><time>2026-04-24T15:23:08Z</time></trkpt><trkpt lat="53.767177740952526" lon="87.137324982251"><ele>193.0</ele><time>2026-04-24T15:23:11Z</time></trkpt><trkpt lat="53.767118997938326" lon="87.13741441778235"><ele>193.0</ele><time>2026-04-24T15:23:14Z</time></trkpt><trkpt lat="53.7670949492155" lon="87.13755062833827"><ele>193.0</ele><time>2026-04-24T15:23:17Z</time></trkpt><trkpt lat="53.767020304214796" lon="87.13760896358131"><ele>192.99999999999997</ele><time>2026-04-24T15:23:19Z</time></trkpt><trkpt lat="53.766972653643116" lon="87.13772314813129"><ele>193.0</ele><time>2026-04-24T15:23:21.999Z</time></trkpt><trkpt lat="53.76692302095061" lon="87.13779025232735"><ele>192.99999999999997</ele><time>2026-04-24T15:23:23.999Z</time></trkpt><trkpt lat="53.76686411279322" lon="87.1378984034569"><ele>193.0</ele><time>2026-04-24T15:23:26.999Z</time></trkpt><trkpt lat="53.76681373766088" lon="87.13797280837302"><ele>193.0</ele><time>2026-04-24T15:23:28.999Z</time></trkpt><trkpt lat="53.76676406363837" lon="87.13804948778755"><ele>193.0</ele><time>2026-04-24T15:23:30.999Z</time></trkpt><trkpt lat="53.766706348158806" lon="87.13815825977242"><ele>192.99999999999997</ele><time>2026-04-24T15:23:32.999Z</time></trkpt><trkpt lat="53.766642815595546" lon="87.13823708189246"><ele>193.0</ele><time>2026-04-24T15:23:34.999Z</time></trkpt><trkpt lat="53.76658116126209" lon="87.13827374405753"><ele>193.0</ele><time>2026-04-24T15:23:38.999Z</time></trkpt><trkpt lat="53.766406620439284" lon="87.13833615268322"><ele>193.0</ele><time>2026-04-24T15:31:11Z</time></trkpt><trkpt lat="53.76645912856179" lon="87.13840801360351"><ele>193.0</ele><time>2026-04-24T15:33:17Z</time></trkpt><trkpt lat="53.76639381222065" lon="87.13845252475681"><ele>193.0</ele><time>2026-04-24T15:33:29Z</time></trkpt><trkpt lat="53.76634390772772" lon="87.13852186857173"><ele>193.0</ele><time>2026-04-24T15:33:33Z</time></trkpt><trkpt lat="53.76628139149551" lon="87.1386002817178"><ele>192.99999999999997</ele><time>2026-04-24T15:33:38Z</time></trkpt><trkpt lat="53.76623745242113" lon="87.13868991093409"><ele>193.0</ele><time>2026-04-24T15:33:43Z</time></trkpt><trkpt lat="53.76617945394018" lon="87.13877993107864"><ele>193.0</ele><time>2026-04-24T15:33:46Z</time></trkpt><trkpt lat="53.766130763342794" lon="87.13884914231798"><ele>193.0</ele><time>2026-04-24T15:33:47Z</time></trkpt><trkpt lat="53.76608991712807" lon="87.13893513976775"><ele>192.99999999999997</ele><time>2026-04-24T15:33:48Z</time></trkpt><trkpt lat="53.76600326567695" lon="87.13905055961789"><ele>193.0</ele><time>2026-04-24T15:33:50Z</time></trkpt><trkpt lat="53.765939222483425" lon="87.13898514242615"><ele>193.14285714285717</ele><time>2026-04-24T15:33:53Z</time></trkpt><trkpt lat="53.76586420788759" lon="87.13893924557715"><ele>193.28571428571428</ele><time>2026-04-24T15:33:57Z</time></trkpt><trkpt lat="53.76581181065636" lon="87.13905591134804"><ele>193.42857142857144</ele><time>2026-04-24T15:33:59Z</time></trkpt><trkpt lat="53.76574689845535" lon="87.13900648024384"><ele>193.57142857142858</ele><time>2026-04-24T15:34:16Z</time></trkpt><trkpt lat="53.76568443341442" lon="87.1390208491594"><ele>193.71428571428572</ele><time>2026-04-24T15:34:22Z</time></trkpt><trkpt lat="53.76564012198077" lon="87.13909837639554"><ele>193.85714285714286</ele><time>2026-04-24T15:34:24Z</time></trkpt><trkpt lat="53.765589091127325" lon="87.13918445986609"><ele>194.0</ele><time>2026-04-24T15:34:26Z</time></trkpt><trkpt lat="53.76553034031668" lon="87.13928547974838"><ele>194.0</ele><time>2026-04-24T15:34:28Z</time></trkpt><trkpt lat="53.765486067562314" lon="87.13936482770872"><ele>194.0</ele><time>2026-04-24T15:34:30Z</time></trkpt><trkpt lat="53.765438701456134" lon="87.1394379048381"><ele>194.0</ele><time>2026-04-24T15:34:32Z</time></trkpt><trkpt lat="53.765397374561715" lon="87.13952047078433"><ele>194.0</ele><time>2026-04-24T15:34:34Z</time></trkpt><trkpt lat="53.76535311947061" lon="87.13962995102953"><ele>194.0</ele><time>2026-04-24T15:34:37Z</time></trkpt><trkpt lat="53.765295533782506" lon="87.13972754616809"><ele>194.0</ele><time>2026-04-24T15:34:40Z</time></trkpt><trkpt lat="53.76524456298013" lon="87.13982911479573"><ele>194.0</ele><time>2026-04-24T15:34:43Z</time></trkpt><trkpt lat="53.765175929276346" lon="87.13990812886416"><ele>194.00000000000003</ele><time>2026-04-24T15:34:46Z</time></trkpt><trkpt lat="53.76512662306308" lon="87.14001187132835"><ele>194.0</ele><time>2026-04-24T15:34:48Z</time></trkpt><trkpt lat="53.7650569375547" lon="87.14010585434613"><ele>194.0</ele><time>2026-04-24T15:34:51Z</time></trkpt><trkpt lat="53.76501528414957" lon="87.14019818938078"><ele>194.0</ele><time>2026-04-24T15:34:54Z</time></trkpt><trkpt lat="53.76494979805891" lon="87.14031578287882"><ele>194.00000000000003</ele><time>2026-04-24T15:34:57Z</time></trkpt><trkpt lat="53.76486139063893" lon="87.14043756684994"><ele>194.0</ele><time>2026-04-24T15:34:59Z</time></trkpt><trkpt lat="53.76481215123439" lon="87.14051367221879"><ele>194.00000000000003</ele><time>2026-04-24T15:35:00Z</time></trkpt><trkpt lat="53.7647606474294" lon="87.1405965686648"><ele>194.0</ele><time>2026-04-24T15:35:01Z</time></trkpt><trkpt lat="53.76467884889128" lon="87.14072310131283"><ele>194.0</ele><time>2026-04-24T15:35:03Z</time></trkpt><trkpt lat="53.764614103431065" lon="87.14079077862006"><ele>194.0</ele><time>2026-04-24T15:35:05Z</time></trkpt><trkpt lat="53.76454427218614" lon="87.14072985178854"><ele>194.00000000000003</ele><time>2026-04-24T15:35:07Z</time></trkpt><trkpt lat="53.764463234135235" lon="87.1407878151459"><ele>194.0</ele><time>2026-04-24T15:35:09Z</time></trkpt><trkpt lat="53.764386293858756" lon="87.14082750743943"><ele>194.0</ele><time>2026-04-24T15:35:11Z</time></trkpt><trkpt lat="53.764306593092115" lon="87.14089325192784"><ele>194.0</ele><time>2026-04-24T15:35:13Z</time></trkpt><trkpt lat="53.76423711628022" lon="87.14095196158034"><ele>194.0</ele><time>2026-04-24T15:35:15Z</time></trkpt><trkpt lat="53.76419783114446" lon="87.14103966580088"><ele>194.0</ele><time>2026-04-24T15:35:17Z</time></trkpt><trkpt lat="53.76414697303492" lon="87.14111090669013"><ele>194.0</ele><time>2026-04-24T15:35:20Z</time></trkpt><trkpt lat="53.764099822159764" lon="87.14118193130598"><ele>194.0</ele><time>2026-04-24T15:35:23Z</time></trkpt><trkpt lat="53.764053428830394" lon="87.14127632025502"><ele>194.0</ele><time>2026-04-24T15:35:27Z</time></trkpt><trkpt lat="53.76397979313946" lon="87.14136728633834"><ele>194.0</ele><time>2026-04-24T15:35:30Z</time></trkpt><trkpt lat="53.76392939887442" lon="87.14144440186348"><ele>194.0</ele><time>2026-04-24T15:35:32Z</time></trkpt><trkpt lat="53.7638831545344" lon="87.14152614675616"><ele>194.0</ele><time>2026-04-24T15:35:34Z</time></trkpt><trkpt lat="53.76382667625349" lon="87.14159672423017"><ele>194.0</ele><time>2026-04-24T15:35:36Z</time></trkpt><trkpt lat="53.763763913259794" lon="87.14167249148953"><ele>194.0</ele><time>2026-04-24T15:35:38Z</time></trkpt><trkpt lat="53.76372079888444" lon="87.14181321187905"><ele>194.0</ele><time>2026-04-24T15:35:41Z</time></trkpt><trkpt lat="53.76368210397376" lon="87.14189855461628"><ele>194.0</ele><time>2026-04-24T15:35:43Z</time></trkpt><trkpt lat="53.763649275856935" lon="87.1420313693657"><ele>194.00000000000003</ele><time>2026-04-24T15:35:46Z</time></trkpt><trkpt lat="53.76364034339048" lon="87.14213971698295"><ele>194.0</ele><time>2026-04-24T15:36:11Z</time></trkpt><trkpt lat="53.76364737051283" lon="87.14227146691034"><ele>194.0</ele><time>2026-04-24T15:36:15Z</time></trkpt><trkpt lat="53.76366825248345" lon="87.14238603008867"><ele>194.0</ele><time>2026-04-24T15:36:17Z</time></trkpt><trkpt lat="53.76361441808995" lon="87.14251185123791"><ele>194.00000000000003</ele><time>2026-04-24T15:36:19Z</time></trkpt><trkpt lat="53.763546826227504" lon="87.14258806965361"><ele>194.0</ele><time>2026-04-24T15:36:21Z</time></trkpt><trkpt lat="53.76348667463089" lon="87.14262725087008"><ele>194.2</ele><time>2026-04-24T15:36:23Z</time></trkpt><trkpt lat="53.763438798457344" lon="87.14272331195191"><ele>194.39999999999998</ele><time>2026-04-24T15:36:26Z</time></trkpt><trkpt lat="53.763379661340785" lon="87.1428570990608"><ele>194.6</ele><time>2026-04-24T15:36:41Z</time></trkpt><trkpt lat="53.76331619720551" lon="87.14294344252902"><ele>194.8</ele><time>2026-04-24T15:36:43Z</time></trkpt><trkpt lat="53.763239311001456" lon="87.14306084919225"><ele>195.0</ele><time>2026-04-24T15:36:45Z</time></trkpt><trkpt lat="53.763169235989274" lon="87.14318691173077"><ele>195.25</ele><time>2026-04-24T15:36:47Z</time></trkpt><trkpt lat="53.76308815201597" lon="87.14332173212715"><ele>195.5</ele><time>2026-04-24T15:36:49Z</time></trkpt><trkpt lat="53.76300059796528" lon="87.14346766578403"><ele>195.75</ele><time>2026-04-24T15:36:51Z</time></trkpt><trkpt lat="53.76291609537958" lon="87.14360548530935"><ele>196.0</ele><time>2026-04-24T15:36:53Z</time></trkpt><trkpt lat="53.76284411805908" lon="87.14371248895053"><ele>195.99999999999997</ele><time>2026-04-24T15:36:55Z</time></trkpt><trkpt lat="53.76278320427645" lon="87.14381520741682"><ele>196.0</ele><time>2026-04-24T15:36:57Z</time></trkpt><trkpt lat="53.76272423132804" lon="87.14390117543313"><ele>196.0</ele><time>2026-04-24T15:36:59Z</time></trkpt><trkpt lat="53.762672058719644" lon="87.14398890905228"><ele>196.0</ele><time>2026-04-24T15:37:01Z</time></trkpt><trkpt lat="53.762626617220896" lon="87.14406509111207"><ele>195.99999999999997</ele><time>2026-04-24T15:37:03Z</time></trkpt><trkpt lat="53.76254823359752" lon="87.14417839636917"><ele>196.0</ele><time>2026-04-24T15:37:06Z</time></trkpt><trkpt lat="53.76249846043647" lon="87.14426087344994"><ele>195.83333333333331</ele><time>2026-04-24T15:37:08Z</time></trkpt><trkpt lat="53.76243229906467" lon="87.14437187574025"><ele>195.66666666666666</ele><time>2026-04-24T15:37:11Z</time></trkpt><trkpt lat="53.76237094853206" lon="87.14448782908605"><ele>195.5</ele><time>2026-04-24T15:37:14Z</time></trkpt><trkpt lat="53.76230278009132" lon="87.14453518082631"><ele>195.33333333333331</ele><time>2026-04-24T15:37:16Z</time></trkpt><trkpt lat="53.76222224603825" lon="87.14458987886245"><ele>195.16666666666666</ele><time>2026-04-24T15:37:18Z</time></trkpt><trkpt lat="53.762162225561475" lon="87.14468408119544"><ele>195.0</ele><time>2026-04-24T15:37:20Z</time></trkpt><trkpt lat="53.76213569285056" lon="87.14481600211384"><ele>195.16666666666666</ele><time>2026-04-24T15:37:23Z</time></trkpt><trkpt lat="53.762086849289105" lon="87.1449103104391"><ele>195.33333333333331</ele><time>2026-04-24T15:37:26Z</time></trkpt><trkpt lat="53.762047302448835" lon="87.14500098101907"><ele>195.5</ele><time>2026-04-24T15:37:28Z</time></trkpt><trkpt lat="53.761978794144234" lon="87.14510681398714"><ele>195.66666666666666</ele><time>2026-04-24T15:37:30Z</time></trkpt><trkpt lat="53.7619341128813" lon="87.14520030674944"><ele>195.83333333333331</ele><time>2026-04-24T15:37:32Z</time></trkpt><trkpt lat="53.76188801320799" lon="87.14529296727176"><ele>196.0</ele><time>2026-04-24T15:37:34Z</time></trkpt><trkpt lat="53.761842081528094" lon="87.14541038140169"><ele>195.99999999999997</ele><time>2026-04-24T15:37:37Z</time></trkpt><trkpt lat="53.76175929068992" lon="87.14551177665103"><ele>196.0</ele><time>2026-04-24T15:37:39Z</time></trkpt><trkpt lat="53.761702420266246" lon="87.14559128953252"><ele>196.0</ele><time>2026-04-24T15:37:40Z</time></trkpt><trkpt lat="53.76164465214899" lon="87.14566038369615"><ele>196.0</ele><time>2026-04-24T15:37:41Z</time></trkpt><trkpt lat="53.76157720394959" lon="87.14573405468752"><ele>195.99999999999997</ele><time>2026-04-24T15:37:42Z</time></trkpt><trkpt lat="53.76152745779732" lon="87.1458145012263"><ele>196.0</ele><time>2026-04-24T15:37:43Z</time></trkpt><trkpt lat="53.76148038487839" lon="87.14589164987318"><ele>196.0</ele><time>2026-04-24T15:37:44Z</time></trkpt><trkpt lat="53.761398622034235" lon="87.14604594334833"><ele>196.0</ele><time>2026-04-24T15:37:46Z</time></trkpt><trkpt lat="53.76109487876586" lon="87.1457922742885"><ele>195.66666666666666</ele><time>2026-04-24T15:37:48Z</time></trkpt><trkpt lat="53.761024490994735" lon="87.14590974376667"><ele>195.33333333333331</ele><time>2026-04-24T15:37:50Z</time></trkpt><trkpt lat="53.76094646672931" lon="87.14605354935323"><ele>195.0</ele><time>2026-04-24T15:37:52Z</time></trkpt><trkpt lat="53.76088423419432" lon="87.1461483228739"><ele>194.66666666666669</ele><time>2026-04-24T15:37:54Z</time></trkpt><trkpt lat="53.76083688732535" lon="87.14622626611909"><ele>194.33333333333334</ele><time>2026-04-24T15:37:56Z</time></trkpt><trkpt lat="53.76077781462525" lon="87.14632351177693"><ele>194.0</ele><time>2026-04-24T15:38:00Z</time></trkpt><trkpt lat="53.76072886238977" lon="87.1464039690321"><ele>194.0</ele><time>2026-04-24T15:38:03Z</time></trkpt><trkpt lat="53.76067911942221" lon="87.14648272611007"><ele>194.0</ele><time>2026-04-24T15:38:06Z</time></trkpt><trkpt lat="53.760610164621134" lon="87.14659190145764"><ele>194.0</ele><time>2026-04-24T15:38:09Z</time></trkpt><trkpt lat="53.7607381287428" lon="87.14703037925406"><ele>194.28571428571428</ele><time>2026-04-24T15:38:11Z</time></trkpt><trkpt lat="53.76068966567241" lon="87.14714357773063"><ele>194.57142857142858</ele><time>2026-04-24T15:38:13Z</time></trkpt><trkpt lat="53.76063859299571" lon="87.14723561215371"><ele>194.85714285714286</ele><time>2026-04-24T15:38:15Z</time></trkpt><trkpt lat="53.760587935272675" lon="87.14731377993706"><ele>195.14285714285714</ele><time>2026-04-24T15:38:17Z</time></trkpt><trkpt lat="53.760538958163416" lon="87.14740573981695"><ele>195.42857142857144</ele><time>2026-04-24T15:38:19Z</time></trkpt><trkpt lat="53.76048906717841" lon="87.14749423136989"><ele>195.71428571428572</ele><time>2026-04-24T15:38:21Z</time></trkpt><trkpt lat="53.760439586103885" lon="87.14756287823887"><ele>196.0</ele><time>2026-04-24T15:38:23Z</time></trkpt><trkpt lat="53.760390876331236" lon="87.14764243445966"><ele>195.83333333333331</ele><time>2026-04-24T15:38:25Z</time></trkpt><trkpt lat="53.76033308913596" lon="87.14774216601288"><ele>195.66666666666666</ele><time>2026-04-24T15:38:27Z</time></trkpt><trkpt lat="53.76029507998274" lon="87.14782725658918"><ele>195.5</ele><time>2026-04-24T15:38:32Z</time></trkpt><trkpt lat="53.76023489021521" lon="87.14774095487029"><ele>195.33333333333331</ele><time>2026-04-24T15:38:34Z</time></trkpt><trkpt lat="53.76013463456208" lon="87.14780139255338"><ele>195.16666666666666</ele><time>2026-04-24T15:38:36Z</time></trkpt><trkpt lat="53.760087495923166" lon="87.14788292286376"><ele>195.0</ele><time>2026-04-24T15:38:37Z</time></trkpt><trkpt lat="53.75988385828206" lon="87.14793719191772"><ele>195.0</ele><time>2026-04-24T15:38:39Z</time></trkpt><trkpt lat="53.7598506319687" lon="87.14807887436561"><ele>195.0</ele><time>2026-04-24T15:38:41Z</time></trkpt><trkpt lat="53.759803938389354" lon="87.14827959836569"><ele>195.0</ele><time>2026-04-24T15:38:43Z</time></trkpt><trkpt lat="53.759761399790335" lon="87.14846224413529"><ele>195.0</ele><time>2026-04-24T15:38:45Z</time></trkpt><trkpt lat="53.75972650719069" lon="87.14861215878068"><ele>195.0</ele><time>2026-04-24T15:38:47Z</time></trkpt><trkpt lat="53.75969276521851" lon="87.1487572109909"><ele>195.2</ele><time>2026-04-24T15:38:50Z</time></trkpt><trkpt lat="53.75964730728765" lon="87.14895255267724"><ele>195.4</ele><time>2026-04-24T15:38:52Z</time></trkpt><trkpt lat="53.759604296362184" lon="87.14913712467111"><ele>195.60000000000002</ele><time>2026-04-24T15:38:54Z</time></trkpt><trkpt lat="53.759565017303345" lon="87.1493056831331"><ele>195.8</ele><time>2026-04-24T15:38:56Z</time></trkpt><trkpt lat="53.75953452468832" lon="87.14943269516425"><ele>196.0</ele><time>2026-04-24T15:38:58Z</time></trkpt><trkpt lat="53.759774520350106" lon="87.1498315944084"><ele>197.60000000000002</ele><time>2026-04-24T15:39:00Z</time></trkpt><trkpt lat="53.75970000459092" lon="87.14994037074051"><ele>199.2</ele><time>2026-04-24T15:39:02Z</time></trkpt><trkpt lat="53.75964677303622" lon="87.1500314733505"><ele>200.8</ele><time>2026-04-24T15:39:04Z</time></trkpt><trkpt lat="53.759564768980546" lon="87.15017416871859"><ele>202.39999999999998</ele><time>2026-04-24T15:39:06Z</time></trkpt><trkpt lat="53.75951651209104" lon="87.15025290261121"><ele>204.0</ele><time>2026-04-24T15:39:07Z</time></trkpt><trkpt lat="53.75944991517866" lon="87.15040154332323"><ele>204.0</ele><time>2026-04-24T15:39:09Z</time></trkpt><trkpt lat="53.75937823793681" lon="87.1505236914852"><ele>204.0</ele><time>2026-04-24T15:39:11Z</time></trkpt><trkpt lat="53.75937999034321" lon="87.1506781342412"><ele>204.0</ele><time>2026-04-24T15:39:13Z</time></trkpt><trkpt lat="53.75942256194212" lon="87.15080302042354"><ele>204.0</ele><time>2026-04-24T15:39:15Z</time></trkpt><trkpt lat="53.7592927917111" lon="87.15073876882082"><ele>204.0</ele><time>2026-04-24T15:39:16Z</time></trkpt><trkpt lat="53.75935168827562" lon="87.15085799652098"><ele>203.5</ele><time>2026-04-24T15:39:17Z</time></trkpt><trkpt lat="53.759242459052565" lon="87.15086534864005"><ele>203.0</ele><time>2026-04-24T15:39:19Z</time></trkpt><trkpt lat="53.759314004198345" lon="87.1510378487911"><ele>202.5</ele><time>2026-04-24T15:39:21Z</time></trkpt><trkpt lat="53.759272845868715" lon="87.15112255403429"><ele>202.0</ele><time>2026-04-24T15:39:24Z</time></trkpt><trkpt lat="53.759014736112135" lon="87.15075888731742"><ele>201.99999999999997</ele><time>2026-04-24T15:39:25Z</time></trkpt><trkpt lat="53.75896624833685" lon="87.15084619358475"><ele>202.0</ele><time>2026-04-24T15:39:28Z</time></trkpt><trkpt lat="53.75891677440761" lon="87.15093541088892"><ele>202.0</ele><time>2026-04-24T15:39:30Z</time></trkpt><trkpt lat="53.75886468996683" lon="87.15102933676985"><ele>202.0</ele><time>2026-04-24T15:39:32Z</time></trkpt><trkpt lat="53.758799215638085" lon="87.15114741266416"><ele>201.99999999999997</ele><time>2026-04-24T15:39:34Z</time></trkpt><trkpt lat="53.758737015843955" lon="87.15121441815786"><ele>202.0</ele><time>2026-04-24T15:39:37Z</time></trkpt><trkpt lat="53.7589086549163" lon="87.15162392342862"><ele>202.49999999999997</ele><time>2026-04-24T15:39:38Z</time></trkpt><trkpt lat="53.75884854964097" lon="87.15169970330918"><ele>203.0</ele><time>2026-04-24T15:39:40Z</time></trkpt><trkpt lat="53.75874955448282" lon="87.1518373644308"><ele>203.5</ele><time>2026-04-24T15:40:20Z</time></trkpt><trkpt lat="53.75868734239984" lon="87.15192474135299"><ele>204.0</ele><time>2026-04-24T15:40:22Z</time></trkpt><trkpt lat="53.758634838139514" lon="87.15199737290408"><ele>204.49999999999997</ele><time>2026-04-24T15:40:25Z</time></trkpt><trkpt lat="53.758591002412075" lon="87.15207838205774"><ele>205.0</ele><time>2026-04-24T15:40:29Z</time></trkpt><trkpt lat="53.758548951784064" lon="87.15216240827799"><ele>204.33333333333331</ele><time>2026-04-24T15:40:31Z</time></trkpt><trkpt lat="53.75847283026672" lon="87.15227064718022"><ele>203.66666666666666</ele><time>2026-04-24T15:40:33Z</time></trkpt><trkpt lat="53.75839748339708" lon="87.15237414854691"><ele>203.0</ele><time>2026-04-24T15:40:35Z</time></trkpt><trkpt lat="53.7583428274501" lon="87.15246777231116"><ele>202.33333333333331</ele><time>2026-04-24T15:40:37Z</time></trkpt><trkpt lat="53.7582705687356" lon="87.15252305421323"><ele>201.66666666666666</ele><time>2026-04-24T15:40:39Z</time></trkpt><trkpt lat="53.75821335958034" lon="87.15259396368367"><ele>201.0</ele><time>2026-04-24T15:40:41Z</time></trkpt><trkpt lat="53.75817069834327" lon="87.15268424807923"><ele>201.0</ele><time>2026-04-24T15:40:43Z</time></trkpt><trkpt lat="53.758116595409724" lon="87.1527731177001"><ele>201.0</ele><time>2026-04-24T15:40:45Z</time></trkpt><trkpt lat="53.758070771913694" lon="87.1529094379597"><ele>201.0</ele><time>2026-04-24T15:40:48Z</time></trkpt><trkpt lat="53.75802010952116" lon="87.15300734311597"><ele>201.0</ele><time>2026-04-24T15:40:50Z</time></trkpt><trkpt lat="53.7579614988461" lon="87.15308664829003"><ele>201.0</ele><time>2026-04-24T15:40:52Z</time></trkpt><trkpt lat="53.75791553627047" lon="87.15318905252182"><ele>201.0</ele><time>2026-04-24T15:40:54Z</time></trkpt><trkpt lat="53.75785352398646" lon="87.15324076550083"><ele>201.0</ele><time>2026-04-24T15:40:56Z</time></trkpt><trkpt lat="53.757787889636234" lon="87.15328701457409"><ele>201.0</ele><time>2026-04-24T15:40:58Z</time></trkpt><trkpt lat="53.75773783139548" lon="87.15335606513618"><ele>201.0</ele><time>2026-04-24T15:41:00Z</time></trkpt><trkpt lat="53.757666053689015" lon="87.15340150247944"><ele>201.0</ele><time>2026-04-24T15:41:03Z</time></trkpt><trkpt lat="53.757671173129545" lon="87.15351258602588"><ele>201.0</ele><time>2026-04-24T15:41:05Z</time></trkpt><trkpt lat="53.757667747423376" lon="87.15363415890205"><ele>201.0</ele><time>2026-04-24T15:41:07Z</time></trkpt><trkpt lat="53.75767056614686" lon="87.15380722970578"><ele>201.0</ele><time>2026-04-24T15:41:09Z</time></trkpt><trkpt lat="53.75769947819004" lon="87.15401668418976"><ele>201.0</ele><time>2026-04-24T15:41:11Z</time></trkpt><trkpt lat="53.75772088244461" lon="87.15412458093594"><ele>201.0</ele><time>2026-04-24T15:41:12Z</time></trkpt><trkpt lat="53.75773079013025" lon="87.15423916431322"><ele>201.0</ele><time>2026-04-24T15:41:13Z</time></trkpt><trkpt lat="53.757710530154775" lon="87.15439836619879"><ele>201.0</ele><time>2026-04-24T15:41:15Z</time></trkpt><trkpt lat="53.757713874969895" lon="87.15455543504942"><ele>201.0</ele><time>2026-04-24T15:41:17Z</time></trkpt><trkpt lat="53.75773080375856" lon="87.15470215440278"><ele>201.0</ele><time>2026-04-24T15:41:19Z</time></trkpt><trkpt lat="53.757715594233275" lon="87.15483055702371"><ele>201.0</ele><time>2026-04-24T15:41:21Z</time></trkpt><trkpt lat="53.75772112600742" lon="87.1550138448628"><ele>201.0</ele><time>2026-04-24T15:41:23Z</time></trkpt><trkpt lat="53.75771557836686" lon="87.15512301986986"><ele>201.0</ele><time>2026-04-24T15:41:24Z</time></trkpt><trkpt lat="53.75770177884669" lon="87.15530015713328"><ele>201.0</ele><time>2026-04-24T15:41:26Z</time></trkpt><trkpt lat="53.757712147200124" lon="87.15545060659782"><ele>201.0</ele><time>2026-04-24T15:41:28Z</time></trkpt><trkpt lat="53.757703357386156" lon="87.15556393048021"><ele>201.0</ele><time>2026-04-24T15:41:32Z</time></trkpt><trkpt lat="53.757701994645394" lon="87.15568929136765"><ele>201.0</ele><time>2026-04-24T15:41:35Z</time></trkpt><trkpt lat="53.757697759238496" lon="87.15580195904252"><ele>201.0</ele><time>2026-04-24T15:41:38Z</time></trkpt><trkpt lat="53.757709497388966" lon="87.15591197923729"><ele>201.0</ele><time>2026-04-24T15:41:40Z</time></trkpt><trkpt lat="53.75769815035238" lon="87.15602242635148"><ele>201.0</ele><time>2026-04-24T15:41:41Z</time></trkpt><trkpt lat="53.7576689509313" lon="87.1561230206484"><ele>201.0</ele><time>2026-04-24T15:41:44Z</time></trkpt><trkpt lat="53.75762010495256" lon="87.15619882628862"><ele>201.33333333333334</ele><time>2026-04-24T15:41:46Z</time></trkpt><trkpt lat="53.7575948566485" lon="87.15631891071773"><ele>201.66666666666669</ele><time>2026-04-24T15:41:48Z</time></trkpt><trkpt lat="53.757619875581426" lon="87.15643766463275"><ele>202.0</ele><time>2026-04-24T15:41:51Z</time></trkpt><trkpt lat="53.75761797846229" lon="87.1565741505326"><ele>202.33333333333334</ele><time>2026-04-24T15:41:55Z</time></trkpt><trkpt lat="53.75763083565481" lon="87.15668581687844"><ele>202.66666666666669</ele><time>2026-04-24T15:41:58Z</time></trkpt><trkpt lat="53.75762710008809" lon="87.15680377294761"><ele>203.0</ele><time>2026-04-24T15:42:02Z</time></trkpt><trkpt lat="53.75761032329858" lon="87.15695327489948"><ele>203.00000000000003</ele><time>2026-04-24T15:42:05Z</time></trkpt><trkpt lat="53.75762014245239" lon="87.15710792923393"><ele>203.0</ele><time>2026-04-24T15:42:07Z</time></trkpt><trkpt lat="53.75760922754412" lon="87.15722996810987"><ele>203.0</ele><time>2026-04-24T15:42:09Z</time></trkpt><trkpt lat="53.75760735789371" lon="87.15735965957809"><ele>203.0</ele><time>2026-04-24T15:42:11Z</time></trkpt><trkpt lat="53.75760730173967" lon="87.15748523132817"><ele>203.00000000000003</ele><time>2026-04-24T15:42:13Z</time></trkpt><trkpt lat="53.757604127103434" lon="87.15761355309674"><ele>203.0</ele><time>2026-04-24T15:42:15Z</time></trkpt><trkpt lat="53.757601467748515" lon="87.15773078915842"><ele>202.71428571428572</ele><time>2026-04-24T15:42:17Z</time></trkpt><trkpt lat="53.75760048922959" lon="87.15784651822823"><ele>202.42857142857144</ele><time>2026-04-24T15:42:19Z</time></trkpt><trkpt lat="53.75760726095441" lon="87.15796249313252"><ele>202.14285714285714</ele><time>2026-04-24T15:42:21Z</time></trkpt><trkpt lat="53.7576052682682" lon="87.15811685072464"><ele>201.85714285714286</ele><time>2026-04-24T15:42:24Z</time></trkpt><trkpt lat="53.75760100607028" lon="87.15824718963387"><ele>201.57142857142858</ele><time>2026-04-24T15:42:26Z</time></trkpt><trkpt lat="53.75758909561728" lon="87.15837294838761"><ele>201.28571428571428</ele><time>2026-04-24T15:42:28Z</time></trkpt><trkpt lat="53.75757977887634" lon="87.15848447555592"><ele>201.0</ele><time>2026-04-24T15:42:30Z</time></trkpt><trkpt lat="53.75756942379267" lon="87.15864579642006"><ele>201.0</ele><time>2026-04-24T15:42:33Z</time></trkpt><trkpt lat="53.75757383814063" lon="87.15880476038814"><ele>201.0</ele><time>2026-04-24T15:42:37Z</time></trkpt><trkpt lat="53.75756820515978" lon="87.15892933203874"><ele>201.0</ele><time>2026-04-24T15:42:40Z</time></trkpt><trkpt lat="53.757570998233525" lon="87.15906567423379"><ele>201.0</ele><time>2026-04-24T15:42:43Z</time></trkpt><trkpt lat="53.757556212571735" lon="87.15920222954595"><ele>201.0</ele><time>2026-04-24T15:42:46Z</time></trkpt><trkpt lat="53.75754822985173" lon="87.15931345219819"><ele>201.0</ele><time>2026-04-24T15:42:48Z</time></trkpt><trkpt lat="53.75754945626677" lon="87.15945299674289"><ele>201.20000000000002</ele><time>2026-04-24T15:42:50Z</time></trkpt><trkpt lat="53.75754989894328" lon="87.15961293797147"><ele>201.4</ele><time>2026-04-24T15:42:52Z</time></trkpt><trkpt lat="53.757562406093406" lon="87.15979049775157"><ele>201.6</ele><time>2026-04-24T15:42:54Z</time></trkpt><trkpt lat="53.75756078020223" lon="87.1599787601171"><ele>201.8</ele><time>2026-04-24T15:42:56Z</time></trkpt><trkpt lat="53.757576125663014" lon="87.1601732866668"><ele>202.0</ele><time>2026-04-24T15:42:58Z</time></trkpt><trkpt lat="53.757587518963085" lon="87.16036848610787"><ele>201.99999999999997</ele><time>2026-04-24T15:43:00Z</time></trkpt><trkpt lat="53.7576122298339" lon="87.16053161651989"><ele>202.0</ele><time>2026-04-24T15:43:02Z</time></trkpt><trkpt lat="53.757620806282304" lon="87.16067113342193"><ele>202.0</ele><time>2026-04-24T15:43:04Z</time></trkpt><trkpt lat="53.757622926401574" lon="87.16079571120514"><ele>202.0</ele><time>2026-04-24T15:43:08Z</time></trkpt><trkpt lat="53.757602962535486" lon="87.16090015975907"><ele>201.99999999999997</ele><time>2026-04-24T15:43:10Z</time></trkpt><trkpt lat="53.757588209432384" lon="87.16101467757228"><ele>202.0</ele><time>2026-04-24T15:43:13Z</time></trkpt><trkpt lat="53.757599064310945" lon="87.16112904416431"><ele>202.14285714285714</ele><time>2026-04-24T15:43:17Z</time></trkpt><trkpt lat="53.75758741679821" lon="87.16124906283792"><ele>202.28571428571428</ele><time>2026-04-24T15:43:20Z</time></trkpt><trkpt lat="53.757577584730804" lon="87.16136083306695"><ele>202.42857142857144</ele><time>2026-04-24T15:43:23Z</time></trkpt><trkpt lat="53.7575734519842" lon="87.16150577648492"><ele>202.57142857142856</ele><time>2026-04-24T15:43:26Z</time></trkpt><trkpt lat="53.7575814253092" lon="87.16162772881118"><ele>202.71428571428572</ele><time>2026-04-24T15:43:28Z</time></trkpt><trkpt lat="53.757571307049794" lon="87.16176496249551"><ele>202.85714285714286</ele><time>2026-04-24T15:43:30Z</time></trkpt><trkpt lat="53.75757348249998" lon="87.16188312016479"><ele>203.0</ele><time>2026-04-24T15:43:32Z</time></trkpt><trkpt lat="53.75758655098056" lon="87.16203199296275"><ele>203.00000000000003</ele><time>2026-04-24T15:43:34Z</time></trkpt><trkpt lat="53.757577182728554" lon="87.16216483053098"><ele>203.0</ele><time>2026-04-24T15:43:36Z</time></trkpt><trkpt lat="53.7575700127688" lon="87.16229264860611"><ele>203.0</ele><time>2026-04-24T15:43:38Z</time></trkpt><trkpt lat="53.75756133555583" lon="87.16243191305892"><ele>203.0</ele><time>2026-04-24T15:43:40Z</time></trkpt><trkpt lat="53.7575558342536" lon="87.16256345189541"><ele>203.00000000000003</ele><time>2026-04-24T15:43:42Z</time></trkpt><trkpt lat="53.75754945763725" lon="87.1627264038808"><ele>203.0</ele><time>2026-04-24T15:43:44Z</time></trkpt><trkpt lat="53.75753907628585" lon="87.16286296992676"><ele>203.0</ele><time>2026-04-24T15:43:46Z</time></trkpt><trkpt lat="53.75754326558285" lon="87.16298800352"><ele>203.0</ele><time>2026-04-24T15:43:48Z</time></trkpt><trkpt lat="53.75753597017306" lon="87.1630947999068"><ele>203.0</ele><time>2026-04-24T15:43:50Z</time></trkpt><trkpt lat="53.75753169898532" lon="87.16321886845729"><ele>203.0</ele><time>2026-04-24T15:43:52Z</time></trkpt><trkpt lat="53.75753364348319" lon="87.16333674476469"><ele>203.0</ele><time>2026-04-24T15:43:54Z</time></trkpt><trkpt lat="53.757531428713015" lon="87.16347265453675"><ele>203.0</ele><time>2026-04-24T15:43:56Z</time></trkpt><trkpt lat="53.75753673525809" lon="87.16360860019243"><ele>203.0</ele><time>2026-04-24T15:43:58Z</time></trkpt><trkpt lat="53.757547076808635" lon="87.1637351124252"><ele>202.83333333333334</ele><time>2026-04-24T15:44:00Z</time></trkpt><trkpt lat="53.757542982429136" lon="87.16385547033978"><ele>202.66666666666669</ele><time>2026-04-24T15:44:02Z</time></trkpt><trkpt lat="53.75753755877008" lon="87.16400991817284"><ele>202.5</ele><time>2026-04-24T15:44:05Z</time></trkpt><trkpt lat="53.75755436763469" lon="87.16411702958203"><ele>202.33333333333331</ele><time>2026-04-24T15:44:07Z</time></trkpt><trkpt lat="53.75755571499634" lon="87.1642425772394"><ele>202.16666666666666</ele><time>2026-04-24T15:44:09Z</time></trkpt><trkpt lat="53.75756218586555" lon="87.1643815137881"><ele>202.0</ele><time>2026-04-24T15:44:11Z</time></trkpt><trkpt lat="53.757555840100565" lon="87.16453673122045"><ele>201.83333333333331</ele><time>2026-04-24T15:44:13Z</time></trkpt><trkpt lat="53.75754787292206" lon="87.16470331211306"><ele>201.66666666666666</ele><time>2026-04-24T15:44:15Z</time></trkpt><trkpt lat="53.7575329398969" lon="87.16482276068012"><ele>201.5</ele><time>2026-04-24T15:44:17Z</time></trkpt><trkpt lat="53.75754600904606" lon="87.16497865481155"><ele>201.33333333333331</ele><time>2026-04-24T15:44:20Z</time></trkpt><trkpt lat="53.75754856191188" lon="87.16510048464193"><ele>201.16666666666666</ele><time>2026-04-24T15:44:23Z</time></trkpt><trkpt lat="53.75756511744186" lon="87.16520951357447"><ele>201.0</ele><time>2026-04-24T15:44:29Z</time></trkpt><trkpt lat="53.7574895786185" lon="87.16530568966712"><ele>201.0</ele><time>2026-04-24T15:45:06Z</time></trkpt><trkpt lat="53.757493991097064" lon="87.16543513146077"><ele>201.0</ele><time>2026-04-24T15:45:08Z</time></trkpt><trkpt lat="53.75751330993101" lon="87.16553762480892"><ele>201.0</ele><time>2026-04-24T15:45:10Z</time></trkpt><trkpt lat="53.75754231359434" lon="87.16564017046431"><ele>201.0</ele><time>2026-04-24T15:45:13Z</time></trkpt><trkpt lat="53.7575551694281" lon="87.16574821803529"><ele>201.0</ele><time>2026-04-24T15:45:18Z</time></trkpt><trkpt lat="53.757558146630686" lon="87.16588367649315"><ele>201.0</ele><time>2026-04-24T15:45:22Z</time></trkpt><trkpt lat="53.7575588888434" lon="87.16601081886645"><ele>201.0</ele><time>2026-04-24T15:45:26Z</time></trkpt><trkpt lat="53.75758668749895" lon="87.16610892727633"><ele>201.0</ele><time>2026-04-24T15:45:29Z</time></trkpt><trkpt lat="53.757608519381755" lon="87.16621060004243"><ele>201.0</ele><time>2026-04-24T15:45:31Z</time></trkpt><trkpt lat="53.75763996774937" lon="87.16633247054638"><ele>201.0</ele><time>2026-04-24T15:45:34Z</time></trkpt><trkpt lat="53.757680656486556" lon="87.16641498040707"><ele>201.0</ele><time>2026-04-24T15:45:38Z</time></trkpt><trkpt lat="53.757711375923876" lon="87.16650862160148"><ele>201.0</ele><time>2026-04-24T15:45:42Z</time></trkpt><trkpt lat="53.75771320228997" lon="87.1667165991581"><ele>201.0</ele><time>2026-04-24T15:46:35Z</time></trkpt><trkpt lat="53.7576656784484" lon="87.16679267508326"><ele>201.0</ele><time>2026-04-24T15:47:45Z</time></trkpt><trkpt lat="53.757655994154575" lon="87.16690815420547"><ele>201.0</ele><time>2026-04-24T15:47:49Z</time></trkpt><trkpt lat="53.757629219073706" lon="87.1670092433057"><ele>201.0</ele><time>2026-04-24T15:47:52Z</time></trkpt><trkpt lat="53.7575947988749" lon="87.16710543705491"><ele>201.0</ele><time>2026-04-24T15:47:55Z</time></trkpt><trkpt lat="53.757598845832455" lon="87.16726497107794"><ele>201.0</ele><time>2026-04-24T15:48:16Z</time></trkpt><trkpt lat="53.757597313437444" lon="87.16741305841084"><ele>201.0</ele><time>2026-04-24T15:48:20Z</time></trkpt><trkpt lat="53.75759107237828" lon="87.16752738807986"><ele>201.5</ele><time>2026-04-24T15:48:22Z</time></trkpt><trkpt lat="53.75759029282061" lon="87.16767690495341"><ele>202.0</ele><time>2026-04-24T15:48:25Z</time></trkpt><trkpt lat="53.75760604495342" lon="87.1678067450935"><ele>202.5</ele><time>2026-04-24T15:48:28Z</time></trkpt><trkpt lat="53.757639378638366" lon="87.16790089049195"><ele>203.0</ele><time>2026-04-24T15:48:31Z</time></trkpt><trkpt lat="53.75766463325544" lon="87.16800332484245"><ele>203.5</ele><time>2026-04-24T15:48:34Z</time></trkpt><trkpt lat="53.75769953004939" lon="87.16814354543756"><ele>204.0</ele><time>2026-04-24T15:48:37Z</time></trkpt><trkpt lat="53.75770855150724" lon="87.16825960478671"><ele>204.16666666666666</ele><time>2026-04-24T15:48:40Z</time></trkpt><trkpt lat="53.75773398264577" lon="87.16835852411424"><ele>204.33333333333331</ele><time>2026-04-24T15:48:42Z</time></trkpt><trkpt lat="53.75777814659137" lon="87.16843697194169"><ele>204.5</ele><time>2026-04-24T15:48:44Z</time></trkpt><trkpt lat="53.75782523863379" lon="87.1685448387728"><ele>204.66666666666666</ele><time>2026-04-24T15:48:46Z</time></trkpt><trkpt lat="53.757887229835376" lon="87.16867506620005"><ele>204.83333333333331</ele><time>2026-04-24T15:48:48Z</time></trkpt><trkpt lat="53.75795623644282" lon="87.16881829649788"><ele>205.0</ele><time>2026-04-24T15:48:50Z</time></trkpt><trkpt lat="53.758038411207764" lon="87.16897263203063"><ele>203.99999999999997</ele><time>2026-04-24T15:48:52Z</time></trkpt><trkpt lat="53.75810384311908" lon="87.16912206124987"><ele>203.0</ele><time>2026-04-24T15:48:54Z</time></trkpt><trkpt lat="53.75815082640736" lon="87.16926724795019"><ele>202.0</ele><time>2026-04-24T15:48:56Z</time></trkpt><trkpt lat="53.758223548380904" lon="87.16935988618677"><ele>201.0</ele><time>2026-04-24T15:48:59Z</time></trkpt><trkpt lat="53.75827868849983" lon="87.16945862263431"><ele>199.99999999999997</ele><time>2026-04-24T15:49:01Z</time></trkpt><trkpt lat="53.75832051359012" lon="87.16954542056178"><ele>199.0</ele><time>2026-04-24T15:49:03Z</time></trkpt><trkpt lat="53.75836700292084" lon="87.16963704362912"><ele>198.99999999999997</ele><time>2026-04-24T15:49:05Z</time></trkpt><trkpt lat="53.75843646913589" lon="87.1697232609097"><ele>199.0</ele><time>2026-04-24T15:49:07Z</time></trkpt><trkpt lat="53.75849002856513" lon="87.1698040714265"><ele>199.0</ele><time>2026-04-24T15:49:09Z</time></trkpt><trkpt lat="53.758524924613006" lon="87.16990136800844"><ele>199.0</ele><time>2026-04-24T15:49:12Z</time></trkpt><trkpt lat="53.75858811672347" lon="87.16999003151184"><ele>198.99999999999997</ele><time>2026-04-24T15:49:15Z</time></trkpt><trkpt lat="53.75864685380153" lon="87.17004636140717"><ele>199.0</ele><time>2026-04-24T15:49:18Z</time></trkpt><trkpt lat="53.758739281525635" lon="87.17013227319589"><ele>198.83333333333331</ele><time>2026-04-24T15:49:21Z</time></trkpt><trkpt lat="53.75882501179197" lon="87.17021747900804"><ele>198.66666666666666</ele><time>2026-04-24T15:49:24Z</time></trkpt><trkpt lat="53.75889107069971" lon="87.17027674356298"><ele>198.5</ele><time>2026-04-24T15:49:26Z</time></trkpt><trkpt lat="53.75895490540315" lon="87.1703024945565"><ele>198.33333333333331</ele><time>2026-04-24T15:49:29Z</time></trkpt><trkpt lat="53.75901937076968" lon="87.17037280421196"><ele>198.16666666666666</ele><time>2026-04-24T15:49:34Z</time></trkpt><trkpt lat="53.759087510295146" lon="87.1704308360647"><ele>198.0</ele><time>2026-04-24T15:49:37Z</time></trkpt><trkpt lat="53.75918000087838" lon="87.17047975545641"><ele>198.0</ele><time>2026-04-24T15:49:39Z</time></trkpt><trkpt lat="53.75926309790534" lon="87.170474781542"><ele>198.0</ele><time>2026-04-24T15:49:53Z</time></trkpt><trkpt lat="53.75932510500337" lon="87.17051149944197"><ele>198.0</ele><time>2026-04-24T15:50:04Z</time></trkpt><trkpt lat="53.759296834406086" lon="87.17060993840843"><ele>198.0</ele><time>2026-04-24T15:50:09Z</time></trkpt><trkpt lat="53.759358576507665" lon="87.17067366564652"><ele>198.0</ele><time>2026-04-24T15:50:14Z</time></trkpt><trkpt lat="53.75942398716995" lon="87.1707471763533"><ele>198.0</ele><time>2026-04-24T15:50:18Z</time></trkpt><trkpt lat="53.7594970573036" lon="87.17080969915449"><ele>198.0</ele><time>2026-04-24T15:50:21Z</time></trkpt><trkpt lat="53.759589665927685" lon="87.17088523641905"><ele>198.66666666666666</ele><time>2026-04-24T15:50:23Z</time></trkpt><trkpt lat="53.75966297382304" lon="87.17095892908524"><ele>199.33333333333331</ele><time>2026-04-24T15:50:26Z</time></trkpt><trkpt lat="53.759735733348116" lon="87.17102758449332"><ele>200.0</ele><time>2026-04-24T15:50:29Z</time></trkpt><trkpt lat="53.75980449449918" lon="87.17107684947356"><ele>200.66666666666666</ele><time>2026-04-24T15:50:33Z</time></trkpt><trkpt lat="53.75987414716605" lon="87.17106171273329"><ele>201.33333333333331</ele><time>2026-04-24T15:50:37Z</time></trkpt><trkpt lat="53.75994208063478" lon="87.1710736852734"><ele>202.0</ele><time>2026-04-24T15:50:40Z</time></trkpt><trkpt lat="53.76000154145333" lon="87.1711551007262"><ele>201.99999999999997</ele><time>2026-04-24T15:50:45Z</time></trkpt><trkpt lat="53.760060638835725" lon="87.17123117753178"><ele>202.0</ele><time>2026-04-24T15:50:47Z</time></trkpt><trkpt lat="53.76012437017958" lon="87.17131870658505"><ele>202.0</ele><time>2026-04-24T15:50:49Z</time></trkpt><trkpt lat="53.760192399260994" lon="87.17142083625511"><ele>202.0</ele><time>2026-04-24T15:50:51Z</time></trkpt><trkpt lat="53.76025917539083" lon="87.17144982628061"><ele>201.99999999999997</ele><time>2026-04-24T15:50:53Z</time></trkpt><trkpt lat="53.760318433862125" lon="87.171539482231"><ele>202.0</ele><time>2026-04-24T15:50:55Z</time></trkpt><trkpt lat="53.76038414828731" lon="87.17160142981542"><ele>201.16666666666666</ele><time>2026-04-24T15:50:57Z</time></trkpt><trkpt lat="53.760464719563075" lon="87.17168091881368"><ele>200.33333333333331</ele><time>2026-04-24T15:51:00Z</time></trkpt><trkpt lat="53.76052284860475" lon="87.17173280513207"><ele>199.5</ele><time>2026-04-24T15:51:02Z</time></trkpt><trkpt lat="53.760588557770696" lon="87.17180364315037"><ele>198.66666666666669</ele><time>2026-04-24T15:51:05Z</time></trkpt><trkpt lat="53.760649052802655" lon="87.17185864506314"><ele>197.83333333333334</ele><time>2026-04-24T15:51:07Z</time></trkpt><trkpt lat="53.760717541125715" lon="87.17191492035896"><ele>197.0</ele><time>2026-04-24T15:51:09Z</time></trkpt><trkpt lat="53.76078397020293" lon="87.17198315060156"><ele>197.00000000000003</ele><time>2026-04-24T15:51:11Z</time></trkpt><trkpt lat="53.760844842110934" lon="87.17203213860117"><ele>197.0</ele><time>2026-04-24T15:51:13Z</time></trkpt><trkpt lat="53.76093125951173" lon="87.17210820694694"><ele>197.0</ele><time>2026-04-24T15:51:16Z</time></trkpt><trkpt lat="53.76098691878965" lon="87.17216204806184"><ele>197.0</ele><time>2026-04-24T15:51:18Z</time></trkpt><trkpt lat="53.76105835954685" lon="87.1722320834961"><ele>197.00000000000003</ele><time>2026-04-24T15:51:21Z</time></trkpt><trkpt lat="53.76114675337014" lon="87.17230860435113"><ele>197.0</ele><time>2026-04-24T15:51:24Z</time></trkpt><trkpt lat="53.761223231790076" lon="87.17237385587885"><ele>195.33333333333334</ele><time>2026-04-24T15:51:27Z</time></trkpt><trkpt lat="53.76128996493858" lon="87.17243562470573"><ele>193.66666666666669</ele><time>2026-04-24T15:51:30Z</time></trkpt><trkpt lat="53.761357912298514" lon="87.1724812739016"><ele>192.0</ele><time>2026-04-24T15:51:32Z</time></trkpt><trkpt lat="53.76143056777359" lon="87.1725522443933"><ele>190.33333333333334</ele><time>2026-04-24T15:51:34Z</time></trkpt><trkpt lat="53.76148955606422" lon="87.17259938950195"><ele>188.66666666666669</ele><time>2026-04-24T15:51:36Z</time></trkpt><trkpt lat="53.761566505657754" lon="87.17267434541459"><ele>187.0</ele><time>2026-04-24T15:51:39Z</time></trkpt><trkpt lat="53.76163197226224" lon="87.1727313786221"><ele>187.0</ele><time>2026-04-24T15:51:41Z</time></trkpt><trkpt lat="53.76170325725544" lon="87.17279252978126"><ele>187.0</ele><time>2026-04-24T15:51:43Z</time></trkpt><trkpt lat="53.76178277145972" lon="87.17286106316631"><ele>187.0</ele><time>2026-04-24T15:51:45Z</time></trkpt><trkpt lat="53.761869742438705" lon="87.17294060121229"><ele>187.0</ele><time>2026-04-24T15:51:47Z</time></trkpt><trkpt lat="53.76196204164554" lon="87.17301738233726"><ele>187.0</ele><time>2026-04-24T15:51:49Z</time></trkpt><trkpt lat="53.76203901025414" lon="87.17307912286356"><ele>187.0</ele><time>2026-04-24T15:51:51Z</time></trkpt><trkpt lat="53.762107510291784" lon="87.17314431578882"><ele>187.0</ele><time>2026-04-24T15:51:53Z</time></trkpt><trkpt lat="53.762189745902624" lon="87.1732164993327"><ele>187.0</ele><time>2026-04-24T15:51:55Z</time></trkpt><trkpt lat="53.762264585022244" lon="87.17334819837451"><ele>187.0</ele><time>2026-04-24T15:51:57Z</time></trkpt><trkpt lat="53.762363112246405" lon="87.17343389708067"><ele>187.0</ele><time>2026-04-24T15:51:59Z</time></trkpt><trkpt lat="53.76247267544047" lon="87.17352919484651"><ele>187.0</ele><time>2026-04-24T15:52:01Z</time></trkpt><trkpt lat="53.762570999876665" lon="87.17361471712049"><ele>187.0</ele><time>2026-04-24T15:52:03Z</time></trkpt><trkpt lat="53.76265556137395" lon="87.17368826840297"><ele>187.0</ele><time>2026-04-24T15:52:05Z</time></trkpt><trkpt lat="53.762734817410745" lon="87.1737572050136"><ele>187.0</ele><time>2026-04-24T15:52:07Z</time></trkpt><trkpt lat="53.76281730134106" lon="87.17382894937212"><ele>187.0</ele><time>2026-04-24T15:52:09Z</time></trkpt><trkpt lat="53.76290553349449" lon="87.17390568784711"><ele>187.0</ele><time>2026-04-24T15:52:11Z</time></trkpt><trkpt lat="53.762999246337905" lon="87.17398710770053"><ele>187.0</ele><time>2026-04-24T15:52:13Z</time></trkpt><trkpt lat="53.76308128667207" lon="87.1740583738545"><ele>187.0</ele><time>2026-04-24T15:52:15Z</time></trkpt><trkpt lat="53.76315240604688" lon="87.17412015313116"><ele>187.0</ele><time>2026-04-24T15:52:17Z</time></trkpt><trkpt lat="53.763231925674944" lon="87.17412475806138"><ele>187.0</ele><time>2026-04-24T15:52:19Z</time></trkpt><trkpt lat="53.76329055096279" lon="87.1741769836796"><ele>187.0</ele><time>2026-04-24T15:52:21Z</time></trkpt><trkpt lat="53.76336385608507" lon="87.17424341786064"><ele>187.0</ele><time>2026-04-24T15:52:24Z</time></trkpt><trkpt lat="53.76345139883293" lon="87.17431719313035"><ele>187.0</ele><time>2026-04-24T15:52:27Z</time></trkpt><trkpt lat="53.763528589193875" lon="87.17438538631728"><ele>187.0</ele><time>2026-04-24T15:52:30Z</time></trkpt><trkpt lat="53.763593003801184" lon="87.17444868093692"><ele>187.0</ele><time>2026-04-24T15:52:33Z</time></trkpt><trkpt lat="53.76365091216184" lon="87.17449836558546"><ele>187.0</ele><time>2026-04-24T15:52:35Z</time></trkpt><trkpt lat="53.763717269846346" lon="87.17455225482438"><ele>187.0</ele><time>2026-04-24T15:52:37Z</time></trkpt><trkpt lat="53.763779242173456" lon="87.17460852807763"><ele>188.0</ele><time>2026-04-24T15:52:39Z</time></trkpt><trkpt lat="53.76385459168798" lon="87.17467829948374"><ele>189.0</ele><time>2026-04-24T15:52:42Z</time></trkpt><trkpt lat="53.763922175711585" lon="87.17473392698216"><ele>190.0</ele><time>2026-04-24T15:52:45Z</time></trkpt><trkpt lat="53.76400243926454" lon="87.17480619520377"><ele>191.0</ele><time>2026-04-24T15:52:48Z</time></trkpt><trkpt lat="53.764070470115826" lon="87.17486311470408"><ele>191.99999999999997</ele><time>2026-04-24T15:52:51Z</time></trkpt><trkpt lat="53.76413587967278" lon="87.17491871782174"><ele>193.0</ele><time>2026-04-24T15:52:54Z</time></trkpt><trkpt lat="53.76420783553442" lon="87.17498494576712"><ele>193.57142857142858</ele><time>2026-04-24T15:52:57Z</time></trkpt><trkpt lat="53.764274595976396" lon="87.17504301488113"><ele>194.14285714285714</ele><time>2026-04-24T15:53:00Z</time></trkpt><trkpt lat="53.76433563500274" lon="87.17507880722849"><ele>194.71428571428572</ele><time>2026-04-24T15:53:05Z</time></trkpt><trkpt lat="53.764403919152514" lon="87.17512398290799"><ele>195.28571428571428</ele><time>2026-04-24T15:54:32Z</time></trkpt><trkpt lat="53.764466356317996" lon="87.17517897750714"><ele>195.85714285714286</ele><time>2026-04-24T15:54:35Z</time></trkpt><trkpt lat="53.76452783937108" lon="87.17522132292642"><ele>196.42857142857144</ele><time>2026-04-24T15:54:37Z</time></trkpt><trkpt lat="53.76458985347805" lon="87.1752700945073"><ele>197.0</ele><time>2026-04-24T15:54:39Z</time></trkpt><trkpt lat="53.76465747038293" lon="87.17531807535525"><ele>197.57142857142858</ele><time>2026-04-24T15:54:41Z</time></trkpt><trkpt lat="53.76472739422773" lon="87.17537256433516"><ele>198.14285714285717</ele><time>2026-04-24T15:54:43Z</time></trkpt><trkpt lat="53.76478667521236" lon="87.17543865800279"><ele>198.71428571428572</ele><time>2026-04-24T15:54:45Z</time></trkpt><trkpt lat="53.76485504940098" lon="87.17548874115006"><ele>199.28571428571428</ele><time>2026-04-24T15:54:47Z</time></trkpt><trkpt lat="53.76491842043286" lon="87.17554009039056"><ele>199.85714285714286</ele><time>2026-04-24T15:54:49Z</time></trkpt><trkpt lat="53.764975761039" lon="87.17558526698323"><ele>200.42857142857142</ele><time>2026-04-24T15:54:51Z</time></trkpt><trkpt lat="53.765050716332425" lon="87.17566958172803"><ele>201.0</ele><time>2026-04-24T15:54:54Z</time></trkpt><trkpt lat="53.76514052727325" lon="87.17575808182941"><ele>201.5</ele><time>2026-04-24T15:54:57Z</time></trkpt><trkpt lat="53.765208243789345" lon="87.17584522105064"><ele>202.0</ele><time>2026-04-24T15:54:59Z</time></trkpt><trkpt lat="53.76527575600177" lon="87.17597609268412"><ele>202.5</ele><time>2026-04-24T15:55:01Z</time></trkpt><trkpt lat="53.76535145293169" lon="87.17607684462206"><ele>203.0</ele><time>2026-04-24T15:55:03Z</time></trkpt><trkpt lat="53.765415939947" lon="87.17617645001238"><ele>203.5</ele><time>2026-04-24T15:55:05Z</time></trkpt><trkpt lat="53.765469617523024" lon="87.17626983708901"><ele>204.0</ele><time>2026-04-24T15:55:07Z</time></trkpt><trkpt lat="53.76552411115221" lon="87.17636712627116"><ele>204.0</ele><time>2026-04-24T15:55:09Z</time></trkpt><trkpt lat="53.76557257795704" lon="87.1764495436341"><ele>204.0</ele><time>2026-04-24T15:55:11Z</time></trkpt><trkpt lat="53.76563027774114" lon="87.17656158111348"><ele>204.0</ele><time>2026-04-24T15:55:14Z</time></trkpt><trkpt lat="53.76567587548686" lon="87.17664417490907"><ele>204.0</ele><time>2026-04-24T15:55:16Z</time></trkpt><trkpt lat="53.765737753794895" lon="87.17679737913346"><ele>204.0</ele><time>2026-04-24T15:55:18Z</time></trkpt><trkpt lat="53.76577589865733" lon="87.17688357126069"><ele>204.0</ele><time>2026-04-24T15:55:19Z</time></trkpt><trkpt lat="53.76581853032586" lon="87.17697191728153"><ele>203.75</ele><time>2026-04-24T15:55:20Z</time></trkpt><trkpt lat="53.76569186528253" lon="87.17727025769668"><ele>203.5</ele><time>2026-04-24T15:55:21Z</time></trkpt><trkpt lat="53.76575948220239" lon="87.17742617099356"><ele>203.25</ele><time>2026-04-24T15:55:23Z</time></trkpt><trkpt lat="53.765815282068985" lon="87.17755551162642"><ele>203.0</ele><time>2026-04-24T15:55:25Z</time></trkpt><trkpt lat="53.76586958657587" lon="87.17769282620084"><ele>203.0</ele><time>2026-04-24T15:55:27Z</time></trkpt><trkpt lat="53.76592976066035" lon="87.17784498330909"><ele>203.0</ele><time>2026-04-24T15:55:29Z</time></trkpt><trkpt lat="53.76598421346681" lon="87.17798088879499"><ele>203.0</ele><time>2026-04-24T15:55:31Z</time></trkpt><trkpt lat="53.766031880939664" lon="87.17810172456312"><ele>203.0</ele><time>2026-04-24T15:55:33Z</time></trkpt><trkpt lat="53.76609060213063" lon="87.17824923301367"><ele>203.0</ele><time>2026-04-24T15:55:35Z</time></trkpt><trkpt lat="53.766138365326846" lon="87.1783696564722"><ele>203.16666666666669</ele><time>2026-04-24T15:55:37Z</time></trkpt><trkpt lat="53.766178585135485" lon="87.1784706570402"><ele>203.33333333333334</ele><time>2026-04-24T15:55:39Z</time></trkpt><trkpt lat="53.76621446664742" lon="87.17856062512834"><ele>203.5</ele><time>2026-04-24T15:55:41Z</time></trkpt><trkpt lat="53.76625150825152" lon="87.17865350216732"><ele>203.66666666666669</ele><time>2026-04-24T15:55:43Z</time></trkpt><trkpt lat="53.76629374134749" lon="87.17878460560114"><ele>203.83333333333334</ele><time>2026-04-24T15:55:46Z</time></trkpt><trkpt lat="53.766441953974315" lon="87.17875941226086"><ele>204.0</ele><time>2026-04-24T15:55:48Z</time></trkpt><trkpt lat="53.76649029155892" lon="87.17889540666454"><ele>204.0</ele><time>2026-04-24T15:55:51Z</time></trkpt><trkpt lat="53.766527491154854" lon="87.17901758601057"><ele>204.0</ele><time>2026-04-24T15:55:53Z</time></trkpt><trkpt lat="53.76655343765354" lon="87.17919223642402"><ele>204.0</ele><time>2026-04-24T15:55:56Z</time></trkpt><trkpt lat="53.76659271630855" lon="87.17936172298856"><ele>204.0</ele><time>2026-04-24T15:55:58Z</time></trkpt><trkpt lat="53.76655450272453" lon="87.17961142069893"><ele>204.0</ele><time>2026-04-24T15:56:00Z</time></trkpt><trkpt lat="53.76660133282233" lon="87.17976035446225"><ele>203.83333333333334</ele><time>2026-04-24T15:56:02Z</time></trkpt><trkpt lat="53.76664294853388" lon="87.17989268566869"><ele>203.66666666666669</ele><time>2026-04-24T15:56:04Z</time></trkpt><trkpt lat="53.766681289047895" lon="87.18001460222193"><ele>203.5</ele><time>2026-04-24T15:56:06Z</time></trkpt><trkpt lat="53.76671938935611" lon="87.18013575490342"><ele>203.33333333333334</ele><time>2026-04-24T15:56:08Z</time></trkpt><trkpt lat="53.766766495117565" lon="87.1802855437682"><ele>203.16666666666669</ele><time>2026-04-24T15:56:10Z</time></trkpt><trkpt lat="53.76680800701447" lon="87.18041754459011"><ele>203.0</ele><time>2026-04-24T15:56:12Z</time></trkpt><trkpt lat="53.76684598018986" lon="87.18053829299859"><ele>202.83333333333334</ele><time>2026-04-24T15:56:14Z</time></trkpt><trkpt lat="53.766886056675" lon="87.18066562708182"><ele>202.66666666666669</ele><time>2026-04-24T15:56:16Z</time></trkpt><trkpt lat="53.766919457119855" lon="87.18077171778914"><ele>202.5</ele><time>2026-04-24T15:56:18Z</time></trkpt><trkpt lat="53.766958876707236" lon="87.18089692660776"><ele>202.33333333333331</ele><time>2026-04-24T15:56:20Z</time></trkpt><trkpt lat="53.766999944775655" lon="87.18102737194981"><ele>202.16666666666666</ele><time>2026-04-24T15:56:22Z</time></trkpt><trkpt lat="53.76704166659884" lon="87.1811598941363"><ele>202.0</ele><time>2026-04-24T15:56:24Z</time></trkpt><trkpt lat="53.7670806850402" lon="87.1812838285332"><ele>201.8</ele><time>2026-04-24T15:56:26Z</time></trkpt><trkpt lat="53.76711800763796" lon="87.18140237735143"><ele>201.6</ele><time>2026-04-24T15:56:28Z</time></trkpt><trkpt lat="53.767243343077524" lon="87.18137022335091"><ele>201.4</ele><time>2026-04-24T15:56:29Z</time></trkpt><trkpt lat="53.76728418901703" lon="87.18148906192305"><ele>201.20000000000002</ele><time>2026-04-24T15:56:31Z</time></trkpt><trkpt lat="53.767318573613295" lon="87.18161968560574"><ele>201.0</ele><time>2026-04-24T15:56:33Z</time></trkpt><trkpt lat="53.76736174004307" lon="87.18174922447353"><ele>201.0</ele><time>2026-04-24T15:56:35Z</time></trkpt><trkpt lat="53.767398928592314" lon="87.18186939460168"><ele>201.0</ele><time>2026-04-24T15:56:37Z</time></trkpt><trkpt lat="53.76743424222363" lon="87.1819819570877"><ele>201.0</ele><time>2026-04-24T15:56:39Z</time></trkpt><trkpt lat="53.76746639524677" lon="87.1820835584469"><ele>201.0</ele><time>2026-04-24T15:56:41Z</time></trkpt><trkpt lat="53.76751376725373" lon="87.1822172864316"><ele>201.0</ele><time>2026-04-24T15:56:43Z</time></trkpt><trkpt lat="53.767550379103454" lon="87.1823359276243"><ele>201.0</ele><time>2026-04-24T15:56:45Z</time></trkpt><trkpt lat="53.76758481523633" lon="87.18244620280214"><ele>201.0</ele><time>2026-04-24T15:56:47Z</time></trkpt><trkpt lat="53.76761134355992" lon="87.1825490613485"><ele>201.0</ele><time>2026-04-24T15:56:49Z</time></trkpt><trkpt lat="53.7676476113538" lon="87.18265505363607"><ele>201.0</ele><time>2026-04-24T15:57:30.999Z</time></trkpt><trkpt lat="53.767685970193746" lon="87.18274789310256"><ele>201.0</ele><time>2026-04-24T15:57:33.999Z</time></trkpt><trkpt lat="53.76772253500759" lon="87.18285259122867"><ele>201.0</ele><time>2026-04-24T15:57:36.999Z</time></trkpt><trkpt lat="53.76777216760758" lon="87.18294019734626"><ele>201.0</ele><time>2026-04-24T15:57:39.999Z</time></trkpt><trkpt lat="53.767843225517026" lon="87.18305463255349"><ele>201.0</ele><time>2026-04-24T15:57:42.999Z</time></trkpt><trkpt lat="53.76790917137472" lon="87.18311011310823"><ele>202.4</ele><time>2026-04-24T15:57:45Z</time></trkpt><trkpt lat="53.76799661328512" lon="87.18317661456604"><ele>203.8</ele><time>2026-04-24T15:57:47Z</time></trkpt><trkpt lat="53.76809896747516" lon="87.18324373185801"><ele>205.20000000000002</ele><time>2026-04-24T15:57:49Z</time></trkpt><trkpt lat="53.76821643119843" lon="87.18333396255326"><ele>206.60000000000002</ele><time>2026-04-24T15:57:51Z</time></trkpt><trkpt lat="53.7682743903501" lon="87.18338913529125"><ele>208.0</ele><time>2026-04-24T15:57:52Z</time></trkpt><trkpt lat="53.76833430811147" lon="87.18343641671507"><ele>207.99999999999997</ele><time>2026-04-24T15:57:53Z</time></trkpt><trkpt lat="53.76843846754874" lon="87.18347855123277"><ele>208.0</ele><time>2026-04-24T15:57:55Z</time></trkpt><trkpt lat="53.76848955732415" lon="87.18356021284106"><ele>208.0</ele><time>2026-04-24T15:57:59Z</time></trkpt><trkpt lat="53.768543163277045" lon="87.18362679279446"><ele>208.0</ele><time>2026-04-24T15:58:05Z</time></trkpt><trkpt lat="53.76861401595952" lon="87.18366675020091"><ele>207.99999999999997</ele><time>2026-04-24T15:58:11Z</time></trkpt><trkpt lat="53.768678043463474" lon="87.18367708726467"><ele>208.0</ele><time>2026-04-24T15:58:17Z</time></trkpt><trkpt lat="53.76876618325516" lon="87.18370599233162"><ele>208.66666666666666</ele><time>2026-04-24T15:58:23Z</time></trkpt><trkpt lat="53.76880325963358" lon="87.18380783725718"><ele>209.33333333333331</ele><time>2026-04-24T15:58:25Z</time></trkpt><trkpt lat="53.76882066443465" lon="87.18392459226538"><ele>210.0</ele><time>2026-04-24T15:58:27Z</time></trkpt><trkpt lat="53.76885457253901" lon="87.18404011046754"><ele>210.66666666666669</ele><time>2026-04-24T15:58:29Z</time></trkpt><trkpt lat="53.76889176321262" lon="87.18415963843697"><ele>211.33333333333334</ele><time>2026-04-24T15:58:32Z</time></trkpt><trkpt lat="53.76890638188334" lon="87.18428733184707"><ele>212.0</ele><time>2026-04-24T15:58:35Z</time></trkpt><trkpt lat="53.768946270110554" lon="87.18447991476167"><ele>212.16666666666669</ele><time>2026-04-24T15:58:36Z</time></trkpt><trkpt lat="53.76895763779512" lon="87.18464441050182"><ele>212.33333333333334</ele><time>2026-04-24T15:58:38Z</time></trkpt><trkpt lat="53.768974573531054" lon="87.18477258873804"><ele>212.5</ele><time>2026-04-24T15:58:40Z</time></trkpt><trkpt lat="53.7689637212807" lon="87.1849203929695"><ele>212.66666666666669</ele><time>2026-04-24T15:58:43Z</time></trkpt><trkpt lat="53.76895528020978" lon="87.18504121875952"><ele>212.83333333333334</ele><time>2026-04-24T15:58:47Z</time></trkpt><trkpt lat="53.76897550992411" lon="87.18516333908131"><ele>213.0</ele><time>2026-04-24T15:59:13Z</time></trkpt><trkpt lat="53.76898447259991" lon="87.1853156118697"><ele>213.0</ele><time>2026-04-24T15:59:17Z</time></trkpt><trkpt lat="53.76898967540479" lon="87.185422175196"><ele>213.0</ele><time>2026-04-24T15:59:19Z</time></trkpt><trkpt lat="53.76899709039281" lon="87.18553800448758"><ele>213.0</ele><time>2026-04-24T15:59:20.999Z</time></trkpt><trkpt lat="53.768981390685376" lon="87.18566377929092"><ele>213.0</ele><time>2026-04-24T15:59:22.999Z</time></trkpt><trkpt lat="53.768930172069304" lon="87.1858115554036"><ele>213.0</ele><time>2026-04-24T15:59:24.999Z</time></trkpt><trkpt lat="53.768938875743075" lon="87.18594974403236"><ele>213.0</ele><time>2026-04-24T15:59:26.999Z</time></trkpt><trkpt lat="53.76898197074303" lon="87.18603809307344"><ele>212.66666666666666</ele><time>2026-04-24T15:59:28.999Z</time></trkpt><trkpt lat="53.76902715679712" lon="87.18612747639924"><ele>212.33333333333331</ele><time>2026-04-24T15:59:30.999Z</time></trkpt><trkpt lat="53.76906819241688" lon="87.18622758782897"><ele>212.0</ele><time>2026-04-24T15:59:32.999Z</time></trkpt><trkpt lat="53.76913112679704" lon="87.18633550076721"><ele>211.66666666666666</ele><time>2026-04-24T15:59:35.999Z</time></trkpt><trkpt lat="53.76916971577186" lon="87.18642591190873"><ele>211.33333333333331</ele><time>2026-04-24T15:59:37.999Z</time></trkpt><trkpt lat="53.76922453797259" lon="87.18654170525603"><ele>211.0</ele><time>2026-04-24T15:59:40.999Z</time></trkpt><trkpt lat="53.769265961408486" lon="87.18667990504711"><ele>210.85714285714286</ele><time>2026-04-24T15:59:43.999Z</time></trkpt><trkpt lat="53.76930591887489" lon="87.18677398322995"><ele>210.71428571428572</ele><time>2026-04-24T15:59:45.999Z</time></trkpt><trkpt lat="53.769338936362395" lon="87.18686762104511"><ele>210.57142857142856</ele><time>2026-04-24T15:59:47.999Z</time></trkpt><trkpt lat="53.76938134816953" lon="87.1869467484734"><ele>210.42857142857144</ele><time>2026-04-24T15:59:50Z</time></trkpt><trkpt lat="53.769423786510835" lon="87.18703671952393"><ele>210.28571428571428</ele><time>2026-04-24T15:59:52Z</time></trkpt><trkpt lat="53.769466246290996" lon="87.18712944897854"><ele>210.14285714285714</ele><time>2026-04-24T15:59:54Z</time></trkpt><trkpt lat="53.76952641527931" lon="87.18723136778492"><ele>210.0</ele><time>2026-04-24T15:59:56Z</time></trkpt><trkpt lat="53.76956958467332" lon="87.18734293794003"><ele>210.5</ele><time>2026-04-24T15:59:58Z</time></trkpt><trkpt lat="53.769632844253195" lon="87.18746957332746"><ele>211.0</ele><time>2026-04-24T16:00:00Z</time></trkpt><trkpt lat="53.76968305952646" lon="87.18757691421708"><ele>211.5</ele><time>2026-04-24T16:00:02Z</time></trkpt><trkpt lat="53.76972567967634" lon="87.18767320001706"><ele>212.0</ele><time>2026-04-24T16:00:04Z</time></trkpt><trkpt lat="53.76977209141959" lon="87.18777390607417"><ele>212.5</ele><time>2026-04-24T16:00:06Z</time></trkpt><trkpt lat="53.76982989585407" lon="87.18789724089528"><ele>213.0</ele><time>2026-04-24T16:00:08Z</time></trkpt><trkpt lat="53.76989301988861" lon="87.18802658724681"><ele>213.0</ele><time>2026-04-24T16:00:10Z</time></trkpt><trkpt lat="53.76995611162674" lon="87.18817026056593"><ele>213.0</ele><time>2026-04-24T16:00:12Z</time></trkpt><trkpt lat="53.76988929190944" lon="87.18845652688832"><ele>213.0</ele><time>2026-04-24T16:00:14Z</time></trkpt><trkpt lat="53.7699484193612" lon="87.18858837805023"><ele>213.0</ele><time>2026-04-24T16:00:16Z</time></trkpt><trkpt lat="53.770015379599386" lon="87.18873598376057"><ele>212.83333333333334</ele><time>2026-04-24T16:00:18Z</time></trkpt><trkpt lat="53.77007278304832" lon="87.1888652971435"><ele>212.66666666666669</ele><time>2026-04-24T16:00:20Z</time></trkpt><trkpt lat="53.770126905144465" lon="87.18898589794287"><ele>212.5</ele><time>2026-04-24T16:00:22Z</time></trkpt><trkpt lat="53.77017645502709" lon="87.18909631048186"><ele>212.33333333333334</ele><time>2026-04-24T16:00:24Z</time></trkpt><trkpt lat="53.77021954295291" lon="87.18919232360456"><ele>212.16666666666669</ele><time>2026-04-24T16:00:26Z</time></trkpt><trkpt lat="53.77026735827807" lon="87.18929833197565"><ele>212.0</ele><time>2026-04-24T16:00:28Z</time></trkpt><trkpt lat="53.77032346828041" lon="87.18942240523272"><ele>212.0</ele><time>2026-04-24T16:00:30Z</time></trkpt><trkpt lat="53.77037931369364" lon="87.18954703231411"><ele>212.0</ele><time>2026-04-24T16:00:32Z</time></trkpt><trkpt lat="53.77044695741344" lon="87.18970301582081"><ele>212.0</ele><time>2026-04-24T16:00:34Z</time></trkpt><trkpt lat="53.77048667651863" lon="87.18979460645092"><ele>212.0</ele><time>2026-04-24T16:00:35Z</time></trkpt><trkpt lat="53.770527974110344" lon="87.18988983667892"><ele>212.0</ele><time>2026-04-24T16:00:36Z</time></trkpt><trkpt lat="53.77059638386413" lon="87.19004758675366"><ele>212.39999999999998</ele><time>2026-04-24T16:00:38Z</time></trkpt><trkpt lat="53.77065289361573" lon="87.19017789566904"><ele>212.79999999999998</ele><time>2026-04-24T16:00:40Z</time></trkpt><trkpt lat="53.77080579932875" lon="87.19014968914392"><ele>213.2</ele><time>2026-04-24T16:00:42Z</time></trkpt><trkpt lat="53.77086963886921" lon="87.19029895097252"><ele>213.6</ele><time>2026-04-24T16:00:44Z</time></trkpt><trkpt lat="53.77090857759621" lon="87.19038885111041"><ele>214.0</ele><time>2026-04-24T16:00:46Z</time></trkpt><trkpt lat="53.77095782603944" lon="87.19050043318093"><ele>214.00000000000003</ele><time>2026-04-24T16:00:49Z</time></trkpt><trkpt lat="53.771007289908205" lon="87.19057702591745"><ele>214.0</ele><time>2026-04-24T16:00:52Z</time></trkpt><trkpt lat="53.77105109881002" lon="87.19066252275856"><ele>214.0</ele><time>2026-04-24T16:00:54Z</time></trkpt><trkpt lat="53.77108715457496" lon="87.1907632001584"><ele>214.0</ele><time>2026-04-24T16:00:56Z</time></trkpt><trkpt lat="53.77113623417328" lon="87.19083989848448"><ele>214.0</ele><time>2026-04-24T16:00:58Z</time></trkpt><trkpt lat="53.7711805346789" lon="87.1909508604341"><ele>214.00000000000003</ele><time>2026-04-24T16:01:00Z</time></trkpt><trkpt lat="53.77121942437509" lon="87.19105281265497"><ele>214.0</ele><time>2026-04-24T16:01:02Z</time></trkpt><trkpt lat="53.77126527668453" lon="87.19117246260619"><ele>214.5</ele><time>2026-04-24T16:01:04Z</time></trkpt><trkpt lat="53.77131887711125" lon="87.19130198662563"><ele>215.0</ele><time>2026-04-24T16:01:06Z</time></trkpt><trkpt lat="53.77137691146169" lon="87.19143246341137"><ele>215.5</ele><time>2026-04-24T16:01:08Z</time></trkpt><trkpt lat="53.771446261293804" lon="87.1915818583037"><ele>216.0</ele><time>2026-04-24T16:01:10Z</time></trkpt><trkpt lat="53.77137265005818" lon="87.19181915004754"><ele>216.0</ele><time>2026-04-24T16:01:11Z</time></trkpt><trkpt lat="53.771414363354445" lon="87.19191406240137"><ele>216.0</ele><time>2026-04-24T16:01:12Z</time></trkpt><trkpt lat="53.77145412318869" lon="87.19200383070239"><ele>216.0</ele><time>2026-04-24T16:01:13Z</time></trkpt><trkpt lat="53.77149246716115" lon="87.1920893829557"><ele>216.0</ele><time>2026-04-24T16:01:13.999Z</time></trkpt><trkpt lat="53.77155378783662" lon="87.19222655300251"><ele>216.0</ele><time>2026-04-24T16:01:15.999Z</time></trkpt><trkpt lat="53.771606778598134" lon="87.19234510529748"><ele>216.0</ele><time>2026-04-24T16:01:17.999Z</time></trkpt><trkpt lat="53.771647069940556" lon="87.1924352466734"><ele>215.83333333333334</ele><time>2026-04-24T16:01:19.999Z</time></trkpt><trkpt lat="53.77169123843047" lon="87.19253406175216"><ele>215.66666666666669</ele><time>2026-04-24T16:01:21.999Z</time></trkpt><trkpt lat="53.77174156998193" lon="87.19264666504837"><ele>215.5</ele><time>2026-04-24T16:01:24.999Z</time></trkpt><trkpt lat="53.771785679768584" lon="87.19274566246683"><ele>215.33333333333334</ele><time>2026-04-24T16:01:28.999Z</time></trkpt><trkpt lat="53.77184795444102" lon="87.19288559898088"><ele>215.16666666666669</ele><time>2026-04-24T16:01:31.999Z</time></trkpt><trkpt lat="53.771907745065114" lon="87.19301994279168"><ele>215.0</ele><time>2026-04-24T16:01:33.999Z</time></trkpt><trkpt lat="53.77196773163763" lon="87.19317765427954"><ele>214.8</ele><time>2026-04-24T16:01:35.999Z</time></trkpt><trkpt lat="53.772014878593716" lon="87.19329261082233"><ele>214.6</ele><time>2026-04-24T16:01:37.999Z</time></trkpt><trkpt lat="53.77217501578628" lon="87.19322776411522"><ele>214.39999999999998</ele><time>2026-04-24T16:01:39.999Z</time></trkpt><trkpt lat="53.772210040881276" lon="87.1933245651783"><ele>214.2</ele><time>2026-04-24T16:01:41.999Z</time></trkpt><trkpt lat="53.77224490186234" lon="87.1934270814308"><ele>214.0</ele><time>2026-04-24T16:01:44.999Z</time></trkpt><trkpt lat="53.772303296516505" lon="87.19355544911694"><ele>213.99999999999997</ele><time>2026-04-24T16:01:48.999Z</time></trkpt><trkpt lat="53.77235612834209" lon="87.19369487315818"><ele>214.0</ele><time>2026-04-24T16:01:51.999Z</time></trkpt><trkpt lat="53.77240551631579" lon="87.19382613864293"><ele>214.0</ele><time>2026-04-24T16:01:54.999Z</time></trkpt><trkpt lat="53.7724648302534" lon="87.19393580998049"><ele>214.0</ele><time>2026-04-24T16:01:58Z</time></trkpt><trkpt lat="53.77251869163034" lon="87.19406509314001"><ele>213.99999999999997</ele><time>2026-04-24T16:02:01Z</time></trkpt><trkpt lat="53.772559121693206" lon="87.19416125167957"><ele>214.0</ele><time>2026-04-24T16:02:03Z</time></trkpt><trkpt lat="53.77259866295556" lon="87.19425508577233"><ele>214.16666666666666</ele><time>2026-04-24T16:02:06Z</time></trkpt><trkpt lat="53.77264099041675" lon="87.19433482763012"><ele>214.33333333333331</ele><time>2026-04-24T16:02:08Z</time></trkpt><trkpt lat="53.77268732481361" lon="87.19445666124452"><ele>214.5</ele><time>2026-04-24T16:02:11Z</time></trkpt><trkpt lat="53.77272618519482" lon="87.19455731649124"><ele>214.66666666666669</ele><time>2026-04-24T16:02:15Z</time></trkpt><trkpt lat="53.77276683505373" lon="87.19468302453305"><ele>214.83333333333334</ele><time>2026-04-24T16:02:17Z</time></trkpt><trkpt lat="53.7727986028829" lon="87.19479640233685"><ele>215.0</ele><time>2026-04-24T16:02:19Z</time></trkpt><trkpt lat="53.7728444750316" lon="87.19493368212285"><ele>215.16666666666669</ele><time>2026-04-24T16:02:21Z</time></trkpt><trkpt lat="53.772902418609064" lon="87.19505127781508"><ele>215.33333333333334</ele><time>2026-04-24T16:02:23Z</time></trkpt><trkpt lat="53.77295660924368" lon="87.19512363032747"><ele>215.5</ele><time>2026-04-24T16:02:25Z</time></trkpt><trkpt lat="53.77299990146433" lon="87.19522095845763"><ele>215.66666666666669</ele><time>2026-04-24T16:02:27Z</time></trkpt><trkpt lat="53.773062287959306" lon="87.19534129202736"><ele>215.83333333333334</ele><time>2026-04-24T16:02:29Z</time></trkpt><trkpt lat="53.77311435600579" lon="87.19544438007811"><ele>216.0</ele><time>2026-04-24T16:02:31Z</time></trkpt><trkpt lat="53.77314932468634" lon="87.19557426930707"><ele>216.33333333333334</ele><time>2026-04-24T16:02:33Z</time></trkpt><trkpt lat="53.773160021763005" lon="87.19572327248443"><ele>216.66666666666669</ele><time>2026-04-24T16:02:35Z</time></trkpt><trkpt lat="53.77316468101769" lon="87.19585063767494"><ele>217.0</ele><time>2026-04-24T16:02:37Z</time></trkpt><trkpt lat="53.773102547333075" lon="87.19589734197774"><ele>217.33333333333334</ele><time>2026-04-24T16:02:39Z</time></trkpt><trkpt lat="53.773061119725874" lon="87.1959960331395"><ele>217.66666666666669</ele><time>2026-04-24T16:02:42Z</time></trkpt><trkpt lat="53.773112138314154" lon="87.19611147471369"><ele>218.0</ele><time>2026-04-24T16:02:46Z</time></trkpt><trkpt lat="53.77316040134126" lon="87.19621692474036"><ele>218.00000000000003</ele><time>2026-04-24T16:02:49Z</time></trkpt><trkpt lat="53.7731848209238" lon="87.19633626538857"><ele>218.0</ele><time>2026-04-24T16:02:51Z</time></trkpt><trkpt lat="53.77323247923702" lon="87.19645318699612"><ele>218.0</ele><time>2026-04-24T16:02:53Z</time></trkpt><trkpt lat="53.77331848257458" lon="87.19653857924533"><ele>218.0</ele><time>2026-04-24T16:02:54Z</time></trkpt><trkpt lat="53.773352721621855" lon="87.19664182560504"><ele>218.00000000000003</ele><time>2026-04-24T16:02:56Z</time></trkpt><trkpt lat="53.77339969475384" lon="87.19675458376872"><ele>218.0</ele><time>2026-04-24T16:02:58Z</time></trkpt><trkpt lat="53.773447867517135" lon="87.19687529480538"><ele>218.33333333333334</ele><time>2026-04-24T16:03:00Z</time></trkpt><trkpt lat="53.77350666995596" lon="87.1970155706105"><ele>218.66666666666669</ele><time>2026-04-24T16:03:02Z</time></trkpt><trkpt lat="53.77354186160851" lon="87.19710723951515"><ele>219.0</ele><time>2026-04-24T16:03:03Z</time></trkpt><trkpt lat="53.77358755327511" lon="87.19721832203902"><ele>219.33333333333331</ele><time>2026-04-24T16:03:04Z</time></trkpt><trkpt lat="53.7736264936519" lon="87.19731762823547"><ele>219.66666666666666</ele><time>2026-04-24T16:03:04.999Z</time></trkpt><trkpt lat="53.77370206669453" lon="87.19736575012473"><ele>220.0</ele><time>2026-04-24T16:03:05.999Z</time></trkpt><trkpt lat="53.773739276075965" lon="87.1974583933695"><ele>220.2</ele><time>2026-04-24T16:03:06.999Z</time></trkpt><trkpt lat="53.773796449735684" lon="87.19760085159363"><ele>220.4</ele><time>2026-04-24T16:03:08.999Z</time></trkpt><trkpt lat="53.77385110848876" lon="87.19773717595606"><ele>220.60000000000002</ele><time>2026-04-24T16:03:10.999Z</time></trkpt><trkpt lat="53.77390788190958" lon="87.19788235612364"><ele>220.8</ele><time>2026-04-24T16:03:13.999Z</time></trkpt><trkpt lat="53.77395857886467" lon="87.19800246802014"><ele>221.0</ele><time>2026-04-24T16:03:16.999Z</time></trkpt><trkpt lat="53.774008049806966" lon="87.19811751661575"><ele>221.20000000000002</ele><time>2026-04-24T16:03:19.999Z</time></trkpt><trkpt lat="53.774060187590145" lon="87.19823876810031"><ele>221.40000000000003</ele><time>2026-04-24T16:03:22.999Z</time></trkpt><trkpt lat="53.774106688656886" lon="87.19834697173519"><ele>221.6</ele><time>2026-04-24T16:03:26.999Z</time></trkpt><trkpt lat="53.77414545418448" lon="87.19843717549344"><ele>221.8</ele><time>2026-04-24T16:03:29.999Z</time></trkpt><trkpt lat="53.774206700878864" lon="87.19858033188255"><ele>222.0</ele><time>2026-04-24T16:03:32.999Z</time></trkpt><trkpt lat="53.77412371958105" lon="87.19877710395838"><ele>222.0</ele><time>2026-04-24T16:03:33.999Z</time></trkpt><trkpt lat="53.774176295042565" lon="87.19890419009134"><ele>222.0</ele><time>2026-04-24T16:03:35.999Z</time></trkpt><trkpt lat="53.774225728777864" lon="87.19899753133917"><ele>222.0</ele><time>2026-04-24T16:03:37.999Z</time></trkpt><trkpt lat="53.77428129558466" lon="87.19911455625146"><ele>222.0</ele><time>2026-04-24T16:03:40.999Z</time></trkpt><trkpt lat="53.77430273940474" lon="87.19921947875565"><ele>222.0</ele><time>2026-04-24T16:03:42.999Z</time></trkpt><trkpt lat="53.774350616406736" lon="87.19931498805066"><ele>222.0</ele><time>2026-04-24T16:03:44.999Z</time></trkpt><trkpt lat="53.77442165039597" lon="87.19940992421047"><ele>221.83333333333334</ele><time>2026-04-24T16:03:46.999Z</time></trkpt><trkpt lat="53.77445662003813" lon="87.1995383683301"><ele>221.66666666666669</ele><time>2026-04-24T16:03:49.999Z</time></trkpt><trkpt lat="53.77448824206664" lon="87.1996478085666"><ele>221.5</ele><time>2026-04-24T16:03:52.999Z</time></trkpt><trkpt lat="53.77454409303651" lon="87.19976549010367"><ele>221.33333333333334</ele><time>2026-04-24T16:03:55.999Z</time></trkpt><trkpt lat="53.774583848590225" lon="87.19987336614786"><ele>221.16666666666669</ele><time>2026-04-24T16:03:59.999Z</time></trkpt><trkpt lat="53.77453799883121" lon="87.19996324980468"><ele>221.0</ele><time>2026-04-24T16:04:04Z</time></trkpt><trkpt lat="53.77448230653014" lon="87.20004123700203"><ele>221.33333333333334</ele><time>2026-04-24T16:04:07Z</time></trkpt><trkpt lat="53.77448444051543" lon="87.20017261391777"><ele>221.66666666666669</ele><time>2026-04-24T16:04:10Z</time></trkpt><trkpt lat="53.77452067143417" lon="87.20029016438532"><ele>222.0</ele><time>2026-04-24T16:04:13Z</time></trkpt><trkpt lat="53.77457942601577" lon="87.2004084312171"><ele>222.33333333333331</ele><time>2026-04-24T16:04:16Z</time></trkpt><trkpt lat="53.774646805090526" lon="87.2005127180756"><ele>222.66666666666666</ele><time>2026-04-24T16:04:19Z</time></trkpt><trkpt lat="53.77469941320534" lon="87.20063061318699"><ele>223.0</ele><time>2026-04-24T16:04:22Z</time></trkpt><trkpt lat="53.77472845892669" lon="87.20075381192657"><ele>223.14285714285714</ele><time>2026-04-24T16:04:25Z</time></trkpt><trkpt lat="53.77475211821673" lon="87.20085620608103"><ele>223.28571428571428</ele><time>2026-04-24T16:04:28Z</time></trkpt><trkpt lat="53.774677302403305" lon="87.20098185958817"><ele>223.42857142857144</ele><time>2026-04-24T16:04:31Z</time></trkpt><trkpt lat="53.77461834828498" lon="87.20105446360172"><ele>223.57142857142856</ele><time>2026-04-24T16:04:33Z</time></trkpt><trkpt lat="53.77458015971117" lon="87.20116863656939"><ele>223.71428571428572</ele><time>2026-04-24T16:04:36Z</time></trkpt><trkpt lat="53.77451539025867" lon="87.20118216651964"><ele>223.85714285714286</ele><time>2026-04-24T16:04:43Z</time></trkpt><trkpt lat="53.77450989028966" lon="87.20128835883142"><ele>224.0</ele><time>2026-04-24T16:05:13.999Z</time></trkpt><trkpt lat="53.77453280933998" lon="87.20140186158291"><ele>224.0</ele><time>2026-04-24T16:05:17.999Z</time></trkpt></trkseg></trk></gpx>